<?xml version="1.0" encoding="UTF-8" standalone="no" ?>
<gpx xmlns="http://www.topografix.com/GPX/1/1" xmlns:xsi="http://www.w3.org/2001/XMLSchema-instance" xsi:schemaLocation="http://www.topografix.com/GPX/1/1 http://www.topografix.com/GPX/1/1/gpx.xsd" version="1.1" creator="VisuGPX - https://www.visugpx.com">
  <metadata>
    <name>Col-d'Azet par Val Louron</name>
  </metadata>
  <trk>
    <name><![CDATA[Col-d'Azet par Val Louron]]></name>
    <trkseg>
      <trkpt lat="42.90551" lon="0.35906">
        <ele>709.82493</ele>
        <time>2021-08-14T12:57:29.180Z</time>
      </trkpt>
      <trkpt lat="42.90569" lon="0.35885">
        <ele>709.82493</ele>
        <time>2021-08-14T12:57:45.942Z</time>
      </trkpt>
      <trkpt lat="42.9058" lon="0.3588">
        <ele>709.82493</ele>
        <time>2021-08-14T12:57:53.490Z</time>
      </trkpt>
      <trkpt lat="42.90583" lon="0.35884">
        <ele>709.82493</ele>
        <time>2021-08-14T12:57:56.701Z</time>
      </trkpt>
      <trkpt lat="42.90585" lon="0.35887">
        <ele>709.82493</ele>
        <time>2021-08-14T12:57:58.881Z</time>
      </trkpt>
      <trkpt lat="42.90594" lon="0.35901">
        <ele>709.82493</ele>
        <time>2021-08-14T12:58:08.431Z</time>
      </trkpt>
      <trkpt lat="42.90585" lon="0.35909">
        <ele>709.82493</ele>
        <time>2021-08-14T12:58:11.117Z</time>
      </trkpt>
      <trkpt lat="42.90574" lon="0.35919">
        <ele>709.82493</ele>
        <time>2021-08-14T12:58:14.231Z</time>
      </trkpt>
      <trkpt lat="42.9057" lon="0.35929">
        <ele>709.82493</ele>
        <time>2021-08-14T12:58:16.428Z</time>
      </trkpt>
      <trkpt lat="42.90564" lon="0.35931">
        <ele>709.888112</ele>
        <time>2021-08-14T12:58:18.312Z</time>
      </trkpt>
      <trkpt lat="42.90539" lon="0.3595">
        <ele>710.279518</ele>
        <time>2021-08-14T12:58:25.272Z</time>
      </trkpt>
      <trkpt lat="42.90522" lon="0.35968">
        <ele>710.579932</ele>
        <time>2021-08-14T12:58:31.095Z</time>
      </trkpt>
      <trkpt lat="42.90519" lon="0.35972">
        <ele>710.637203</ele>
        <time>2021-08-14T12:58:32.173Z</time>
      </trkpt>
      <trkpt lat="42.90512" lon="0.35982">
        <ele>710.774918</ele>
        <time>2021-08-14T12:58:34.935Z</time>
      </trkpt>
      <trkpt lat="42.9051" lon="0.35983">
        <ele>710.80331</ele>
        <time>2021-08-14T12:58:35.724Z</time>
      </trkpt>
      <trkpt lat="42.90507" lon="0.35982">
        <ele>710.85067</ele>
        <time>2021-08-14T12:58:36.769Z</time>
      </trkpt>
      <trkpt lat="42.90503" lon="0.35978">
        <ele>710.918586</ele>
        <time>2021-08-14T12:58:38.177Z</time>
      </trkpt>
      <trkpt lat="42.90501" lon="0.35976">
        <ele>710.950429</ele>
        <time>2021-08-14T12:58:38.726Z</time>
      </trkpt>
      <trkpt lat="42.90485" lon="0.35956">
        <ele>711.249148</ele>
        <time>2021-08-14T12:58:44.352Z</time>
      </trkpt>
      <trkpt lat="42.90483" lon="0.35954">
        <ele>711.281949</ele>
        <time>2021-08-14T12:58:45.156Z</time>
      </trkpt>
      <trkpt lat="42.90479" lon="0.35949">
        <ele>711.348845</ele>
        <time>2021-08-14T12:58:46.810Z</time>
      </trkpt>
      <trkpt lat="42.9047" lon="0.35933">
        <ele>711.558895</ele>
        <time>2021-08-14T12:58:51.128Z</time>
      </trkpt>
      <trkpt lat="42.90456" lon="0.3595">
        <ele>711.810968</ele>
        <time>2021-08-14T12:58:56.688Z</time>
      </trkpt>
      <trkpt lat="42.90434" lon="0.35971">
        <ele>712.180034</ele>
        <time>2021-08-14T12:59:04.436Z</time>
      </trkpt>
      <trkpt lat="42.90421" lon="0.35983">
        <ele>712.458406</ele>
        <time>2021-08-14T12:59:09.120Z</time>
      </trkpt>
      <trkpt lat="42.90406" lon="0.35999">
        <ele>712.907549</ele>
        <time>2021-08-14T12:59:14.711Z</time>
      </trkpt>
      <trkpt lat="42.90399" lon="0.36007">
        <ele>713.117216</ele>
        <time>2021-08-14T12:59:17.605Z</time>
      </trkpt>
      <trkpt lat="42.90387" lon="0.3602">
        <ele>713.481381</ele>
        <time>2021-08-14T12:59:22.199Z</time>
      </trkpt>
      <trkpt lat="42.90367" lon="0.36032">
        <ele>713.986923</ele>
        <time>2021-08-14T12:59:28.659Z</time>
      </trkpt>
      <trkpt lat="42.90361" lon="0.36035">
        <ele>714.135533</ele>
        <time>2021-08-14T12:59:30.837Z</time>
      </trkpt>
      <trkpt lat="42.90352" lon="0.36039">
        <ele>714.345607</ele>
        <time>2021-08-14T12:59:33.921Z</time>
      </trkpt>
      <trkpt lat="42.90311" lon="0.36074">
        <ele>715.462474</ele>
        <time>2021-08-14T12:59:49.663Z</time>
      </trkpt>
      <trkpt lat="42.90272" lon="0.36096">
        <ele>716.443405</ele>
        <time>2021-08-14T13:00:03.615Z</time>
      </trkpt>
      <trkpt lat="42.90255" lon="0.36118">
        <ele>716.985149</ele>
        <time>2021-08-14T13:00:11.326Z</time>
      </trkpt>
      <trkpt lat="42.90242" lon="0.36137">
        <ele>717.43205</ele>
        <time>2021-08-14T13:00:17.300Z</time>
      </trkpt>
      <trkpt lat="42.90237" lon="0.3614">
        <ele>717.542372</ele>
        <time>2021-08-14T13:00:19.135Z</time>
      </trkpt>
      <trkpt lat="42.90202" lon="0.36157">
        <ele>718.401454</ele>
        <time>2021-08-14T13:00:30.886Z</time>
      </trkpt>
      <trkpt lat="42.9018" lon="0.36171">
        <ele>718.958837</ele>
        <time>2021-08-14T13:00:38.171Z</time>
      </trkpt>
      <trkpt lat="42.90172" lon="0.36175">
        <ele>719.164991</ele>
        <time>2021-08-14T13:00:40.980Z</time>
      </trkpt>
      <trkpt lat="42.90138" lon="0.362">
        <ele>720.044829</ele>
        <time>2021-08-14T13:00:52.460Z</time>
      </trkpt>
      <trkpt lat="42.90098" lon="0.36264">
        <ele>722.050973</ele>
        <time>2021-08-14T13:01:11.153Z</time>
      </trkpt>
      <trkpt lat="42.90005" lon="0.3636">
        <ele>726.521704</ele>
        <time>2021-08-14T13:01:54.086Z</time>
      </trkpt>
      <trkpt lat="42.89996" lon="0.36368">
        <ele>726.932305</ele>
        <time>2021-08-14T13:01:58.931Z</time>
      </trkpt>
      <trkpt lat="42.89965" lon="0.3639">
        <ele>729.245043</ele>
        <time>2021-08-14T13:02:14.854Z</time>
      </trkpt>
      <trkpt lat="42.89921" lon="0.36443">
        <ele>734.143751</ele>
        <time>2021-08-14T13:02:46.662Z</time>
      </trkpt>
      <trkpt lat="42.89866" lon="0.36562">
        <ele>742.821926</ele>
        <time>2021-08-14T13:03:51.929Z</time>
      </trkpt>
      <trkpt lat="42.89851" lon="0.36568">
        <ele>743.856487</ele>
        <time>2021-08-14T13:03:59.626Z</time>
      </trkpt>
      <trkpt lat="42.89842" lon="0.36564">
        <ele>744.489745</ele>
        <time>2021-08-14T13:04:04.331Z</time>
      </trkpt>
      <trkpt lat="42.89837" lon="0.36562">
        <ele>744.843231</ele>
        <time>2021-08-14T13:04:10.409Z</time>
      </trkpt>
      <trkpt lat="42.89807" lon="0.36635">
        <ele>748.854485</ele>
        <time>2021-08-14T13:04:40.652Z</time>
      </trkpt>
      <trkpt lat="42.89747" lon="0.36729">
        <ele>754.499055</ele>
        <time>2021-08-14T13:05:22.783Z</time>
      </trkpt>
      <trkpt lat="42.89712" lon="0.36801">
        <ele>755.160696</ele>
        <time>2021-08-14T13:05:38.664Z</time>
      </trkpt>
      <trkpt lat="42.89696" lon="0.36855">
        <ele>755.613706</ele>
        <time>2021-08-14T13:05:47.547Z</time>
      </trkpt>
      <trkpt lat="42.89685" lon="0.3697">
        <ele>756.655814</ele>
        <time>2021-08-14T13:06:06.583Z</time>
      </trkpt>
      <trkpt lat="42.89678" lon="0.36991">
        <ele>756.999124</ele>
        <time>2021-08-14T13:06:11.483Z</time>
      </trkpt>
      <trkpt lat="42.89657" lon="0.37008">
        <ele>757.466017</ele>
        <time>2021-08-14T13:06:17.934Z</time>
      </trkpt>
      <trkpt lat="42.89605" lon="0.37028">
        <ele>758.525929</ele>
        <time>2021-08-14T13:06:33.812Z</time>
      </trkpt>
      <trkpt lat="42.89593" lon="0.37036">
        <ele>758.79471</ele>
        <time>2021-08-14T13:06:38.364Z</time>
      </trkpt>
      <trkpt lat="42.89579" lon="0.37045">
        <ele>759.109289</ele>
        <time>2021-08-14T13:06:43.917Z</time>
      </trkpt>
      <trkpt lat="42.89522" lon="0.37072">
        <ele>760.574024</ele>
        <time>2021-08-14T13:07:04.948Z</time>
      </trkpt>
      <trkpt lat="42.89486" lon="0.371">
        <ele>761.910686</ele>
        <time>2021-08-14T13:07:20.557Z</time>
      </trkpt>
      <trkpt lat="42.89428" lon="0.37118">
        <ele>763.870561</ele>
        <time>2021-08-14T13:07:43.384Z</time>
      </trkpt>
      <trkpt lat="42.89369" lon="0.37153">
        <ele>765.857015</ele>
        <time>2021-08-14T13:08:04.300Z</time>
      </trkpt>
      <trkpt lat="42.89282" lon="0.37217">
        <ele>767.524316</ele>
        <time>2021-08-14T13:08:34.066Z</time>
      </trkpt>
      <trkpt lat="42.89164" lon="0.37333">
        <ele>769.766187</ele>
        <time>2021-08-14T13:09:12.262Z</time>
      </trkpt>
      <trkpt lat="42.89157" lon="0.3734">
        <ele>769.889644</ele>
        <time>2021-08-14T13:09:14.832Z</time>
      </trkpt>
      <trkpt lat="42.89131" lon="0.37369">
        <ele>770.375121</ele>
        <time>2021-08-14T13:09:24.234Z</time>
      </trkpt>
      <trkpt lat="42.89073" lon="0.37461">
        <ele>771.824603</ele>
        <time>2021-08-14T13:09:50.006Z</time>
      </trkpt>
      <trkpt lat="42.89033" lon="0.37566">
        <ele>773.835981</ele>
        <time>2021-08-14T13:10:17.247Z</time>
      </trkpt>
      <trkpt lat="42.89007" lon="0.37619">
        <ele>774.910031</ele>
        <time>2021-08-14T13:10:32.575Z</time>
      </trkpt>
      <trkpt lat="42.88956" lon="0.37688">
        <ele>776.491665</ele>
        <time>2021-08-14T13:10:56.240Z</time>
      </trkpt>
      <trkpt lat="42.88951" lon="0.37711">
        <ele>776.868813</ele>
        <time>2021-08-14T13:11:01.716Z</time>
      </trkpt>
      <trkpt lat="42.88957" lon="0.37738">
        <ele>777.319458</ele>
        <time>2021-08-14T13:11:07.987Z</time>
      </trkpt>
      <trkpt lat="42.89011" lon="0.37828">
        <ele>779.166517</ele>
        <time>2021-08-14T13:11:33.198Z</time>
      </trkpt>
      <trkpt lat="42.89017" lon="0.37865">
        <ele>779.905999</ele>
        <time>2021-08-14T13:11:41.563Z</time>
      </trkpt>
      <trkpt lat="42.89008" lon="0.37897">
        <ele>780.635727</ele>
        <time>2021-08-14T13:11:49.332Z</time>
      </trkpt>
      <trkpt lat="42.88962" lon="0.37937">
        <ele>782.237566</ele>
        <time>2021-08-14T13:12:06.932Z</time>
      </trkpt>
      <trkpt lat="42.88797" lon="0.38026">
        <ele>788.632069</ele>
        <time>2021-08-14T13:13:13.476Z</time>
      </trkpt>
      <trkpt lat="42.88778" lon="0.38055">
        <ele>789.800548</ele>
        <time>2021-08-14T13:13:25.096Z</time>
      </trkpt>
      <trkpt lat="42.88771" lon="0.38089">
        <ele>790.894086</ele>
        <time>2021-08-14T13:13:35.610Z</time>
      </trkpt>
      <trkpt lat="42.88759" lon="0.38181">
        <ele>793.419025</ele>
        <time>2021-08-14T13:14:03.214Z</time>
      </trkpt>
      <trkpt lat="42.88752" lon="0.38206">
        <ele>794.080514</ele>
        <time>2021-08-14T13:14:11.016Z</time>
      </trkpt>
      <trkpt lat="42.88711" lon="0.38258">
        <ele>795.979721</ele>
        <time>2021-08-14T13:14:30.959Z</time>
      </trkpt>
      <trkpt lat="42.88695" lon="0.38285">
        <ele>796.842146</ele>
        <time>2021-08-14T13:14:39.990Z</time>
      </trkpt>
      <trkpt lat="42.88684" lon="0.38304">
        <ele>797.440418</ele>
        <time>2021-08-14T13:14:45.642Z</time>
      </trkpt>
      <trkpt lat="42.88601" lon="0.38498">
        <ele>801.101466</ele>
        <time>2021-08-14T13:15:34.203Z</time>
      </trkpt>
      <trkpt lat="42.8858" lon="0.38521">
        <ele>801.661875</ele>
        <time>2021-08-14T13:15:42.409Z</time>
      </trkpt>
      <trkpt lat="42.88549" lon="0.38542">
        <ele>802.681114</ele>
        <time>2021-08-14T13:15:53.197Z</time>
      </trkpt>
      <trkpt lat="42.88416" lon="0.38617">
        <ele>807.474914</ele>
        <time>2021-08-14T13:16:45.279Z</time>
      </trkpt>
      <trkpt lat="42.88291" lon="0.38773">
        <ele>813.930416</ele>
        <time>2021-08-14T13:17:50.637Z</time>
      </trkpt>
      <trkpt lat="42.88253" lon="0.38793">
        <ele>815.257764</ele>
        <time>2021-08-14T13:18:05.451Z</time>
      </trkpt>
      <trkpt lat="42.88166" lon="0.38852">
        <ele>817.737467</ele>
        <time>2021-08-14T13:18:37.856Z</time>
      </trkpt>
      <trkpt lat="42.88115" lon="0.38876">
        <ele>819.097245</ele>
        <time>2021-08-14T13:18:53.840Z</time>
      </trkpt>
      <trkpt lat="42.87991" lon="0.38898">
        <ele>820.762402</ele>
        <time>2021-08-14T13:19:28.862Z</time>
      </trkpt>
      <trkpt lat="42.87885" lon="0.38955">
        <ele>822.106075</ele>
        <time>2021-08-14T13:19:57.452Z</time>
      </trkpt>
      <trkpt lat="42.87853" lon="0.38967">
        <ele>822.487201</ele>
        <time>2021-08-14T13:20:05.970Z</time>
      </trkpt>
      <trkpt lat="42.87792" lon="0.38961">
        <ele>823.176415</ele>
        <time>2021-08-14T13:20:21.590Z</time>
      </trkpt>
      <trkpt lat="42.87778" lon="0.38978">
        <ele>823.395445</ele>
        <time>2021-08-14T13:20:26.615Z</time>
      </trkpt>
      <trkpt lat="42.87737" lon="0.39064">
        <ele>825.635054</ele>
        <time>2021-08-14T13:20:50.817Z</time>
      </trkpt>
      <trkpt lat="42.87725" lon="0.39081">
        <ele>826.250759</ele>
        <time>2021-08-14T13:20:57.023Z</time>
      </trkpt>
      <trkpt lat="42.87711" lon="0.39092">
        <ele>826.804334</ele>
        <time>2021-08-14T13:21:02.955Z</time>
      </trkpt>
      <trkpt lat="42.87665" lon="0.39098">
        <ele>828.441101</ele>
        <time>2021-08-14T13:21:20.893Z</time>
      </trkpt>
      <trkpt lat="42.87661" lon="0.39101">
        <ele>828.614091</ele>
        <time>2021-08-14T13:21:23.460Z</time>
      </trkpt>
      <trkpt lat="42.87654" lon="0.39104">
        <ele>828.850571</ele>
        <time>2021-08-14T13:21:25.924Z</time>
      </trkpt>
      <trkpt lat="42.87641" lon="0.39117">
        <ele>829.425257</ele>
        <time>2021-08-14T13:21:32.678Z</time>
      </trkpt>
      <trkpt lat="42.87614" lon="0.39155">
        <ele>830.865324</ele>
        <time>2021-08-14T13:21:48.214Z</time>
      </trkpt>
      <trkpt lat="42.87576" lon="0.39192">
        <ele>832.630576</ele>
        <time>2021-08-14T13:22:07.207Z</time>
      </trkpt>
      <trkpt lat="42.87532" lon="0.39232">
        <ele>834.668128</ele>
        <time>2021-08-14T13:22:28.689Z</time>
      </trkpt>
      <trkpt lat="42.8741" lon="0.39299">
        <ele>837.870981</ele>
        <time>2021-08-14T13:23:10.240Z</time>
      </trkpt>
      <trkpt lat="42.874" lon="0.39302">
        <ele>838.013028</ele>
        <time>2021-08-14T13:23:13.053Z</time>
      </trkpt>
      <trkpt lat="42.87379" lon="0.39309">
        <ele>838.314133</ele>
        <time>2021-08-14T13:23:18.432Z</time>
      </trkpt>
      <trkpt lat="42.87349" lon="0.39317">
        <ele>838.754395</ele>
        <time>2021-08-14T13:23:26.295Z</time>
      </trkpt>
      <trkpt lat="42.87345" lon="0.39318">
        <ele>838.81344</ele>
        <time>2021-08-14T13:23:27.418Z</time>
      </trkpt>
      <trkpt lat="42.87215" lon="0.39359">
        <ele>839.71109</ele>
        <time>2021-08-14T13:23:59.485Z</time>
      </trkpt>
      <trkpt lat="42.87199" lon="0.39364">
        <ele>839.771075</ele>
        <time>2021-08-14T13:24:03.245Z</time>
      </trkpt>
      <trkpt lat="42.8719" lon="0.39366">
        <ele>839.805442</ele>
        <time>2021-08-14T13:24:05.333Z</time>
      </trkpt>
      <trkpt lat="42.87184" lon="0.39368">
        <ele>839.828832</ele>
        <time>2021-08-14T13:24:06.703Z</time>
      </trkpt>
      <trkpt lat="42.87159" lon="0.39387">
        <ele>839.939394</ele>
        <time>2021-08-14T13:24:13.457Z</time>
      </trkpt>
      <trkpt lat="42.87135" lon="0.39438">
        <ele>840.075457</ele>
        <time>2021-08-14T13:24:23.743Z</time>
      </trkpt>
      <trkpt lat="42.87127" lon="0.39461">
        <ele>840.115515</ele>
        <time>2021-08-14T13:24:28.072Z</time>
      </trkpt>
      <trkpt lat="42.87108" lon="0.39512">
        <ele>840.206456</ele>
        <time>2021-08-14T13:24:37.756Z</time>
      </trkpt>
      <trkpt lat="42.87088" lon="0.39567">
        <ele>840.303608</ele>
        <time>2021-08-14T13:24:47.962Z</time>
      </trkpt>
      <trkpt lat="42.87084" lon="0.39579">
        <ele>840.324642</ele>
        <time>2021-08-14T13:24:50.220Z</time>
      </trkpt>
      <trkpt lat="42.87062" lon="0.39625">
        <ele>840.412172</ele>
        <time>2021-08-14T13:24:59.531Z</time>
      </trkpt>
      <trkpt lat="42.87037" lon="0.39648">
        <ele>840.567782</ele>
        <time>2021-08-14T13:25:06.359Z</time>
      </trkpt>
      <trkpt lat="42.87027" lon="0.3965">
        <ele>840.626734</ele>
        <time>2021-08-14T13:25:08.789Z</time>
      </trkpt>
      <trkpt lat="42.87015" lon="0.39653">
        <ele>840.694452</ele>
        <time>2021-08-14T13:25:11.445Z</time>
      </trkpt>
      <trkpt lat="42.86862" lon="0.39647">
        <ele>841.773894</ele>
        <time>2021-08-14T13:25:49.762Z</time>
      </trkpt>
      <trkpt lat="42.86844" lon="0.3965">
        <ele>842.057098</ele>
        <time>2021-08-14T13:25:54.754Z</time>
      </trkpt>
      <trkpt lat="42.86817" lon="0.39665">
        <ele>842.502157</ele>
        <time>2021-08-14T13:26:02.688Z</time>
      </trkpt>
      <trkpt lat="42.8679" lon="0.39685">
        <ele>842.972665</ele>
        <time>2021-08-14T13:26:11.172Z</time>
      </trkpt>
      <trkpt lat="42.86772" lon="0.39707">
        <ele>843.342483</ele>
        <time>2021-08-14T13:26:18.056Z</time>
      </trkpt>
      <trkpt lat="42.86759" lon="0.39737">
        <ele>843.732415</ele>
        <time>2021-08-14T13:26:25.642Z</time>
      </trkpt>
      <trkpt lat="42.86737" lon="0.39886">
        <ele>846.586401</ele>
        <time>2021-08-14T13:27:01.263Z</time>
      </trkpt>
      <trkpt lat="42.86723" lon="0.39907">
        <ele>847.191445</ele>
        <time>2021-08-14T13:27:08.257Z</time>
      </trkpt>
      <trkpt lat="42.86613" lon="0.40012">
        <ele>851.326621</ele>
        <time>2021-08-14T13:27:57.296Z</time>
      </trkpt>
      <trkpt lat="42.8655" lon="0.401">
        <ele>854.299712</ele>
        <time>2021-08-14T13:28:29.964Z</time>
      </trkpt>
      <trkpt lat="42.86532" lon="0.40116">
        <ele>855.006167</ele>
        <time>2021-08-14T13:28:37.256Z</time>
      </trkpt>
      <trkpt lat="42.86512" lon="0.40125">
        <ele>855.588524</ele>
        <time>2021-08-14T13:28:43.996Z</time>
      </trkpt>
      <trkpt lat="42.86425" lon="0.40125">
        <ele>857.522926</ele>
        <time>2021-08-14T13:29:11.586Z</time>
      </trkpt>
      <trkpt lat="42.86363" lon="0.40132">
        <ele>858.893696</ele>
        <time>2021-08-14T13:29:29.697Z</time>
      </trkpt>
      <trkpt lat="42.86269" lon="0.40118">
        <ele>860.860546</ele>
        <time>2021-08-14T13:29:58.289Z</time>
      </trkpt>
      <trkpt lat="42.86227" lon="0.40119">
        <ele>861.71258</ele>
        <time>2021-08-14T13:30:11.385Z</time>
      </trkpt>
      <trkpt lat="42.86204" lon="0.40127">
        <ele>862.210886</ele>
        <time>2021-08-14T13:30:18.338Z</time>
      </trkpt>
      <trkpt lat="42.86192" lon="0.40134">
        <ele>862.476313</ele>
        <time>2021-08-14T13:30:23.020Z</time>
      </trkpt>
      <trkpt lat="42.86179" lon="0.40143">
        <ele>862.779047</ele>
        <time>2021-08-14T13:30:27.108Z</time>
      </trkpt>
      <trkpt lat="42.86156" lon="0.4017">
        <ele>863.320874</ele>
        <time>2021-08-14T13:30:36.455Z</time>
      </trkpt>
      <trkpt lat="42.86103" lon="0.40255">
        <ele>864.565539</ele>
        <time>2021-08-14T13:30:59.877Z</time>
      </trkpt>
      <trkpt lat="42.86091" lon="0.40266">
        <ele>864.783066</ele>
        <time>2021-08-14T13:31:04.428Z</time>
      </trkpt>
      <trkpt lat="42.86076" lon="0.40275">
        <ele>865.029506</ele>
        <time>2021-08-14T13:31:08.801Z</time>
      </trkpt>
      <trkpt lat="42.86005" lon="0.40291">
        <ele>865.938349</ele>
        <time>2021-08-14T13:31:28.001Z</time>
      </trkpt>
      <trkpt lat="42.85985" lon="0.40302">
        <ele>866.069819</ele>
        <time>2021-08-14T13:31:33.768Z</time>
      </trkpt>
      <trkpt lat="42.85967" lon="0.40318">
        <ele>866.196464</ele>
        <time>2021-08-14T13:31:39.109Z</time>
      </trkpt>
      <trkpt lat="42.85936" lon="0.4036">
        <ele>866.450649</ele>
        <time>2021-08-14T13:31:49.283Z</time>
      </trkpt>
      <trkpt lat="42.85914" lon="0.40377">
        <ele>866.60118</ele>
        <time>2021-08-14T13:31:55.111Z</time>
      </trkpt>
      <trkpt lat="42.85866" lon="0.40397">
        <ele>866.899485</ele>
        <time>2021-08-14T13:32:07.098Z</time>
      </trkpt>
      <trkpt lat="42.85778" lon="0.40417">
        <ele>867.503786</ele>
        <time>2021-08-14T13:32:28.639Z</time>
      </trkpt>
      <trkpt lat="42.85722" lon="0.40438">
        <ele>867.899336</ele>
        <time>2021-08-14T13:32:42.856Z</time>
      </trkpt>
      <trkpt lat="42.8562" lon="0.40447">
        <ele>869.582732</ele>
        <time>2021-08-14T13:33:11.032Z</time>
      </trkpt>
      <trkpt lat="42.85586" lon="0.40457">
        <ele>870.290233</ele>
        <time>2021-08-14T13:33:21.804Z</time>
      </trkpt>
      <trkpt lat="42.85516" lon="0.40492">
        <ele>871.846968</ele>
        <time>2021-08-14T13:33:46.524Z</time>
      </trkpt>
      <trkpt lat="42.85446" lon="0.40537">
        <ele>874.038121</ele>
        <time>2021-08-14T13:34:12.845Z</time>
      </trkpt>
      <trkpt lat="42.8543" lon="0.40553">
        <ele>874.593206</ele>
        <time>2021-08-14T13:34:19.681Z</time>
      </trkpt>
      <trkpt lat="42.8538" lon="0.40648">
        <ele>876.991944</ele>
        <time>2021-08-14T13:34:48.612Z</time>
      </trkpt>
      <trkpt lat="42.85367" lon="0.40667">
        <ele>877.433608</ele>
        <time>2021-08-14T13:34:54.942Z</time>
      </trkpt>
      <trkpt lat="42.85337" lon="0.40693">
        <ele>878.266411</ele>
        <time>2021-08-14T13:35:06.518Z</time>
      </trkpt>
      <trkpt lat="42.8527" lon="0.40718">
        <ele>879.888338</ele>
        <time>2021-08-14T13:35:28.081Z</time>
      </trkpt>
      <trkpt lat="42.85219" lon="0.40712">
        <ele>881.07944</ele>
        <time>2021-08-14T13:35:43.512Z</time>
      </trkpt>
      <trkpt lat="42.85126" lon="0.4073">
        <ele>883.049559</ele>
        <time>2021-08-14T13:36:11.573Z</time>
      </trkpt>
      <trkpt lat="42.85081" lon="0.40761">
        <ele>884.104552</ele>
        <time>2021-08-14T13:36:26.935Z</time>
      </trkpt>
      <trkpt lat="42.85015" lon="0.40784">
        <ele>885.988657</ele>
        <time>2021-08-14T13:36:48.033Z</time>
      </trkpt>
      <trkpt lat="42.85006" lon="0.40787">
        <ele>886.318879</ele>
        <time>2021-08-14T13:36:51.539Z</time>
      </trkpt>
      <trkpt lat="42.84997" lon="0.40793">
        <ele>886.680027</ele>
        <time>2021-08-14T13:36:55.509Z</time>
      </trkpt>
      <trkpt lat="42.84971" lon="0.40822">
        <ele>887.855608</ele>
        <time>2021-08-14T13:37:07.771Z</time>
      </trkpt>
      <trkpt lat="42.84948" lon="0.40838">
        <ele>888.737791</ele>
        <time>2021-08-14T13:37:17.265Z</time>
      </trkpt>
      <trkpt lat="42.84887" lon="0.40848">
        <ele>890.901217</ele>
        <time>2021-08-14T13:37:41.128Z</time>
      </trkpt>
      <trkpt lat="42.84868" lon="0.40853">
        <ele>891.548696</ele>
        <time>2021-08-14T13:37:49.314Z</time>
      </trkpt>
      <trkpt lat="42.84842" lon="0.40862">
        <ele>892.424211</ele>
        <time>2021-08-14T13:37:59.223Z</time>
      </trkpt>
      <trkpt lat="42.84822" lon="0.40873">
        <ele>893.138856</ele>
        <time>2021-08-14T13:38:06.828Z</time>
      </trkpt>
      <trkpt lat="42.84796" lon="0.40891">
        <ele>894.088745</ele>
        <time>2021-08-14T13:38:17.593Z</time>
      </trkpt>
      <trkpt lat="42.84726" lon="0.40937">
        <ele>896.668357</ele>
        <time>2021-08-14T13:38:44.908Z</time>
      </trkpt>
      <trkpt lat="42.84706" lon="0.40946">
        <ele>897.151688</ele>
        <time>2021-08-14T13:38:51.554Z</time>
      </trkpt>
      <trkpt lat="42.84648" lon="0.40944">
        <ele>897.79537</ele>
        <time>2021-08-14T13:39:07.530Z</time>
      </trkpt>
      <trkpt lat="42.84625" lon="0.40946">
        <ele>898.05521</ele>
        <time>2021-08-14T13:39:13.396Z</time>
      </trkpt>
      <trkpt lat="42.84606" lon="0.40947">
        <ele>898.266834</ele>
        <time>2021-08-14T13:39:18.051Z</time>
      </trkpt>
      <trkpt lat="42.84602" lon="0.40946">
        <ele>898.3114</ele>
        <time>2021-08-14T13:39:19.050Z</time>
      </trkpt>
      <trkpt lat="42.846" lon="0.40944">
        <ele>898.339685</ele>
        <time>2021-08-14T13:39:19.680Z</time>
      </trkpt>
      <trkpt lat="42.84595" lon="0.40943">
        <ele>898.397775</ele>
        <time>2021-08-14T13:39:20.943Z</time>
      </trkpt>
      <trkpt lat="42.84592" lon="0.40944">
        <ele>898.425715</ele>
        <time>2021-08-14T13:39:21.572Z</time>
      </trkpt>
      <trkpt lat="42.84575" lon="0.40941">
        <ele>898.61637</ele>
        <time>2021-08-14T13:39:25.673Z</time>
      </trkpt>
      <trkpt lat="42.84573" lon="0.4094">
        <ele>898.647521</ele>
        <time>2021-08-14T13:39:26.335Z</time>
      </trkpt>
      <trkpt lat="42.8457" lon="0.40938">
        <ele>898.685757</ele>
        <time>2021-08-14T13:39:27.210Z</time>
      </trkpt>
      <trkpt lat="42.84525" lon="0.40913">
        <ele>899.217025</ele>
        <time>2021-08-14T13:39:39.011Z</time>
      </trkpt>
      <trkpt lat="42.84505" lon="0.40893">
        <ele>899.481045</ele>
        <time>2021-08-14T13:39:45.022Z</time>
      </trkpt>
      <trkpt lat="42.84469" lon="0.4084">
        <ele>900.043816</ele>
        <time>2021-08-14T13:39:57.759Z</time>
      </trkpt>
      <trkpt lat="42.84445" lon="0.40824">
        <ele>900.329178</ele>
        <time>2021-08-14T13:40:04.642Z</time>
      </trkpt>
      <trkpt lat="42.84412" lon="0.40814">
        <ele>900.690241</ele>
        <time>2021-08-14T13:40:14.240Z</time>
      </trkpt>
      <trkpt lat="42.84344" lon="0.40795">
        <ele>902.142531</ele>
        <time>2021-08-14T13:40:36.156Z</time>
      </trkpt>
      <trkpt lat="42.84341" lon="0.40795">
        <ele>902.223646</ele>
        <time>2021-08-14T13:40:37.090Z</time>
      </trkpt>
      <trkpt lat="42.843" lon="0.40783">
        <ele>903.324236</ele>
        <time>2021-08-14T13:40:50.764Z</time>
      </trkpt>
      <trkpt lat="42.84261" lon="0.4077">
        <ele>904.416494</ele>
        <time>2021-08-14T13:41:04.514Z</time>
      </trkpt>
      <trkpt lat="42.84248" lon="0.40765">
        <ele>904.767608</ele>
        <time>2021-08-14T13:41:08.806Z</time>
      </trkpt>
      <trkpt lat="42.84213" lon="0.40745">
        <ele>905.817534</ele>
        <time>2021-08-14T13:41:21.877Z</time>
      </trkpt>
      <trkpt lat="42.84204" lon="0.40742">
        <ele>906.191421</ele>
        <time>2021-08-14T13:41:24.822Z</time>
      </trkpt>
      <trkpt lat="42.84171" lon="0.40731">
        <ele>907.622003</ele>
        <time>2021-08-14T13:41:36.794Z</time>
      </trkpt>
      <trkpt lat="42.84167" lon="0.40729">
        <ele>907.809691</ele>
        <time>2021-08-14T13:41:38.347Z</time>
      </trkpt>
      <trkpt lat="42.8416" lon="0.40727">
        <ele>908.101851</ele>
        <time>2021-08-14T13:41:40.876Z</time>
      </trkpt>
      <trkpt lat="42.84136" lon="0.40718">
        <ele>909.157821</ele>
        <time>2021-08-14T13:41:50.564Z</time>
      </trkpt>
      <trkpt lat="42.84049" lon="0.40704">
        <ele>912.880576</ele>
        <time>2021-08-14T13:42:26.852Z</time>
      </trkpt>
      <trkpt lat="42.84021" lon="0.40697">
        <ele>914.148556</ele>
        <time>2021-08-14T13:42:38.709Z</time>
      </trkpt>
      <trkpt lat="42.83991" lon="0.40689">
        <ele>915.655682</ele>
        <time>2021-08-14T13:42:52.081Z</time>
      </trkpt>
      <trkpt lat="42.83976" lon="0.40684">
        <ele>916.442279</ele>
        <time>2021-08-14T13:42:58.962Z</time>
      </trkpt>
      <trkpt lat="42.83945" lon="0.40675">
        <ele>917.965065</ele>
        <time>2021-08-14T13:43:12.255Z</time>
      </trkpt>
      <trkpt lat="42.83915" lon="0.40659">
        <ele>919.537284</ele>
        <time>2021-08-14T13:43:25.949Z</time>
      </trkpt>
      <trkpt lat="42.8391" lon="0.40656">
        <ele>919.842382</ele>
        <time>2021-08-14T13:43:28.751Z</time>
      </trkpt>
      <trkpt lat="42.83899" lon="0.40649">
        <ele>920.407877</ele>
        <time>2021-08-14T13:43:34.154Z</time>
      </trkpt>
      <trkpt lat="42.83814" lon="0.40636">
        <ele>923.247549</ele>
        <time>2021-08-14T13:44:07.696Z</time>
      </trkpt>
      <trkpt lat="42.83792" lon="0.40633">
        <ele>923.708204</ele>
        <time>2021-08-14T13:44:15.439Z</time>
      </trkpt>
      <trkpt lat="42.83776" lon="0.40631">
        <ele>924.036075</ele>
        <time>2021-08-14T13:44:19.716Z</time>
      </trkpt>
      <trkpt lat="42.83712" lon="0.40614">
        <ele>925.404236</ele>
        <time>2021-08-14T13:44:36.581Z</time>
      </trkpt>
      <trkpt lat="42.83649" lon="0.40596">
        <ele>926.135947</ele>
        <time>2021-08-14T13:44:51.632Z</time>
      </trkpt>
      <trkpt lat="42.83424" lon="0.40561">
        <ele>927.791557</ele>
        <time>2021-08-14T13:45:45.923Z</time>
      </trkpt>
      <trkpt lat="42.83379" lon="0.40536">
        <ele>928.403712</ele>
        <time>2021-08-14T13:45:59.406Z</time>
      </trkpt>
      <trkpt lat="42.83368" lon="0.40531">
        <ele>928.551461</ele>
        <time>2021-08-14T13:46:02.687Z</time>
      </trkpt>
      <trkpt lat="42.83357" lon="0.40526">
        <ele>928.693828</ele>
        <time>2021-08-14T13:46:06.922Z</time>
      </trkpt>
      <trkpt lat="42.83265" lon="0.4047">
        <ele>929.964247</ele>
        <time>2021-08-14T13:46:39.062Z</time>
      </trkpt>
      <trkpt lat="42.83224" lon="0.40455">
        <ele>930.498228</ele>
        <time>2021-08-14T13:46:51.600Z</time>
      </trkpt>
      <trkpt lat="42.8321" lon="0.40453">
        <ele>930.674916</ele>
        <time>2021-08-14T13:46:55.386Z</time>
      </trkpt>
      <trkpt lat="42.83203" lon="0.40451">
        <ele>930.759639</ele>
        <time>2021-08-14T13:46:56.963Z</time>
      </trkpt>
      <trkpt lat="42.83154" lon="0.40425">
        <ele>930.970775</ele>
        <time>2021-08-14T13:47:07.597Z</time>
      </trkpt>
      <trkpt lat="42.83138" lon="0.40417">
        <ele>930.565898</ele>
        <time>2021-08-14T13:47:11.247Z</time>
      </trkpt>
      <trkpt lat="42.83091" lon="0.40426">
        <ele>929.440748</ele>
        <time>2021-08-14T13:47:19.557Z</time>
      </trkpt>
      <trkpt lat="42.82979" lon="0.40426">
        <ele>926.748804</ele>
        <time>2021-08-14T13:47:37.762Z</time>
      </trkpt>
      <trkpt lat="42.8294" lon="0.40427">
        <ele>925.748746</ele>
        <time>2021-08-14T13:47:43.931Z</time>
      </trkpt>
      <trkpt lat="42.82892" lon="0.40426">
        <ele>924.51295</ele>
        <time>2021-08-14T13:47:51.866Z</time>
      </trkpt>
      <trkpt lat="42.82814" lon="0.4042">
        <ele>922.485766</ele>
        <time>2021-08-14T13:48:05.359Z</time>
      </trkpt>
      <trkpt lat="42.82769" lon="0.40434">
        <ele>921.994299</ele>
        <time>2021-08-14T13:48:13.949Z</time>
      </trkpt>
      <trkpt lat="42.826" lon="0.40512">
        <ele>920.942599</ele>
        <time>2021-08-14T13:48:50.482Z</time>
      </trkpt>
      <trkpt lat="42.82568" lon="0.40522">
        <ele>921.043761</ele>
        <time>2021-08-14T13:48:57.670Z</time>
      </trkpt>
      <trkpt lat="42.82536" lon="0.4053">
        <ele>921.143025</ele>
        <time>2021-08-14T13:49:04.895Z</time>
      </trkpt>
      <trkpt lat="42.82437" lon="0.4054">
        <ele>921.903102</ele>
        <time>2021-08-14T13:49:30.100Z</time>
      </trkpt>
      <trkpt lat="42.82349" lon="0.40541">
        <ele>923.86434</ele>
        <time>2021-08-14T13:49:57.354Z</time>
      </trkpt>
      <trkpt lat="42.82308" lon="0.4054">
        <ele>924.774886</ele>
        <time>2021-08-14T13:50:10.992Z</time>
      </trkpt>
      <trkpt lat="42.82262" lon="0.40539">
        <ele>926.002611</ele>
        <time>2021-08-14T13:50:27.022Z</time>
      </trkpt>
      <trkpt lat="42.82202" lon="0.40548">
        <ele>928.015019</ele>
        <time>2021-08-14T13:50:49.252Z</time>
      </trkpt>
      <trkpt lat="42.82176" lon="0.40549">
        <ele>928.847805</ele>
        <time>2021-08-14T13:50:58.598Z</time>
      </trkpt>
      <trkpt lat="42.82092" lon="0.40536">
        <ele>931.554161</ele>
        <time>2021-08-14T13:51:28.640Z</time>
      </trkpt>
      <trkpt lat="42.82047" lon="0.4053">
        <ele>932.612549</ele>
        <time>2021-08-14T13:51:43.328Z</time>
      </trkpt>
      <trkpt lat="42.82035" lon="0.40529">
        <ele>932.902944</ele>
        <time>2021-08-14T13:51:47.247Z</time>
      </trkpt>
      <trkpt lat="42.8202" lon="0.40526">
        <ele>933.281927</ele>
        <time>2021-08-14T13:51:52.381Z</time>
      </trkpt>
      <trkpt lat="42.81959" lon="0.40518">
        <ele>934.742535</ele>
        <time>2021-08-14T13:52:11.435Z</time>
      </trkpt>
      <trkpt lat="42.81933" lon="0.40514">
        <ele>935.353148</ele>
        <time>2021-08-14T13:52:19.073Z</time>
      </trkpt>
      <trkpt lat="42.81912" lon="0.40511">
        <ele>935.740138</ele>
        <time>2021-08-14T13:52:25.226Z</time>
      </trkpt>
      <trkpt lat="42.81885" lon="0.40511">
        <ele>936.109153</ele>
        <time>2021-08-14T13:52:33.181Z</time>
      </trkpt>
      <trkpt lat="42.81867" lon="0.40513">
        <ele>936.34183</ele>
        <time>2021-08-14T13:52:38.064Z</time>
      </trkpt>
      <trkpt lat="42.81827" lon="0.40518">
        <ele>936.87537</ele>
        <time>2021-08-14T13:52:49.048Z</time>
      </trkpt>
      <trkpt lat="42.81735" lon="0.40514">
        <ele>938.096475</ele>
        <time>2021-08-14T13:53:13.813Z</time>
      </trkpt>
      <trkpt lat="42.817" lon="0.40513">
        <ele>938.500537</ele>
        <time>2021-08-14T13:53:22.925Z</time>
      </trkpt>
      <trkpt lat="42.81693" lon="0.40513">
        <ele>938.579485</ele>
        <time>2021-08-14T13:53:24.685Z</time>
      </trkpt>
      <trkpt lat="42.81654" lon="0.40512">
        <ele>939.036911</ele>
        <time>2021-08-14T13:53:35.049Z</time>
      </trkpt>
      <trkpt lat="42.81568" lon="0.40514">
        <ele>940.026095</ele>
        <time>2021-08-14T13:53:57.416Z</time>
      </trkpt>
      <trkpt lat="42.81482" lon="0.40525">
        <ele>943.122344</ele>
        <time>2021-08-14T13:54:23.387Z</time>
      </trkpt>
      <trkpt lat="42.81443" lon="0.40523">
        <ele>944.606823</ele>
        <time>2021-08-14T13:54:39.345Z</time>
      </trkpt>
      <trkpt lat="42.81406" lon="0.40515">
        <ele>945.999146</ele>
        <time>2021-08-14T13:54:55.154Z</time>
      </trkpt>
      <trkpt lat="42.81382" lon="0.40504">
        <ele>947.159792</ele>
        <time>2021-08-14T13:55:05.725Z</time>
      </trkpt>
      <trkpt lat="42.81352" lon="0.40482">
        <ele>950.113151</ele>
        <time>2021-08-14T13:55:22.456Z</time>
      </trkpt>
      <trkpt lat="42.81334" lon="0.40468">
        <ele>951.974857</ele>
        <time>2021-08-14T13:55:35.577Z</time>
      </trkpt>
      <trkpt lat="42.81319" lon="0.40465">
        <ele>953.277038</ele>
        <time>2021-08-14T13:55:43.556Z</time>
      </trkpt>
      <trkpt lat="42.81297" lon="0.40474">
        <ele>955.304479</ele>
        <time>2021-08-14T13:55:58.525Z</time>
      </trkpt>
      <trkpt lat="42.81253" lon="0.40514">
        <ele>959.991266</ele>
        <time>2021-08-14T13:56:33.671Z</time>
      </trkpt>
      <trkpt lat="42.81232" lon="0.40509">
        <ele>961.843632</ele>
        <time>2021-08-14T13:56:47.474Z</time>
      </trkpt>
      <trkpt lat="42.81219" lon="0.40493">
        <ele>962.900323</ele>
        <time>2021-08-14T13:56:58.855Z</time>
      </trkpt>
      <trkpt lat="42.81212" lon="0.40483">
        <ele>963.214767</ele>
        <time>2021-08-14T13:57:05.592Z</time>
      </trkpt>
      <trkpt lat="42.81186" lon="0.40444">
        <ele>964.487435</ele>
        <time>2021-08-14T13:57:22.328Z</time>
      </trkpt>
      <trkpt lat="42.81176" lon="0.4043">
        <ele>964.944306</ele>
        <time>2021-08-14T13:57:28.109Z</time>
      </trkpt>
      <trkpt lat="42.81159" lon="0.40402">
        <ele>965.815604</ele>
        <time>2021-08-14T13:57:36.287Z</time>
      </trkpt>
      <trkpt lat="42.81154" lon="0.40395">
        <ele>966.04083</ele>
        <time>2021-08-14T13:57:38.780Z</time>
      </trkpt>
      <trkpt lat="42.81143" lon="0.4038">
        <ele>966.54976</ele>
        <time>2021-08-14T13:57:44.193Z</time>
      </trkpt>
      <trkpt lat="42.81139" lon="0.40375">
        <ele>966.740479</ele>
        <time>2021-08-14T13:57:45.232Z</time>
      </trkpt>
      <trkpt lat="42.81127" lon="0.40368">
        <ele>967.156117</ele>
        <time>2021-08-14T13:57:48.049Z</time>
      </trkpt>
      <trkpt lat="42.81112" lon="0.40348">
        <ele>967.843933</ele>
        <time>2021-08-14T13:57:53.885Z</time>
      </trkpt>
      <trkpt lat="42.81101" lon="0.40316">
        <ele>968.162494</ele>
        <time>2021-08-14T13:57:58.763Z</time>
      </trkpt>
      <trkpt lat="42.81098" lon="0.4031">
        <ele>967.920519</ele>
        <time>2021-08-14T13:57:59.651Z</time>
      </trkpt>
      <trkpt lat="42.81095" lon="0.40303">
        <ele>967.631881</ele>
        <time>2021-08-14T13:58:00.497Z</time>
      </trkpt>
      <trkpt lat="42.81077" lon="0.40285">
        <ele>966.537659</ele>
        <time>2021-08-14T13:58:04.283Z</time>
      </trkpt>
      <trkpt lat="42.81043" lon="0.40264">
        <ele>964.769154</ele>
        <time>2021-08-14T13:58:09.740Z</time>
      </trkpt>
      <trkpt lat="42.81029" lon="0.40254">
        <ele>964.014584</ele>
        <time>2021-08-14T13:58:11.946Z</time>
      </trkpt>
      <trkpt lat="42.81003" lon="0.40223">
        <ele>962.338815</ele>
        <time>2021-08-14T13:58:16.837Z</time>
      </trkpt>
      <trkpt lat="42.80983" lon="0.40204">
        <ele>961.169095</ele>
        <time>2021-08-14T13:58:20.473Z</time>
      </trkpt>
      <trkpt lat="42.80968" lon="0.40193">
        <ele>960.333051</ele>
        <time>2021-08-14T13:58:23.043Z</time>
      </trkpt>
      <trkpt lat="42.80958" lon="0.40188">
        <ele>959.82623</ele>
        <time>2021-08-14T13:58:24.670Z</time>
      </trkpt>
      <trkpt lat="42.8095" lon="0.40185">
        <ele>959.687249</ele>
        <time>2021-08-14T13:58:25.913Z</time>
      </trkpt>
      <trkpt lat="42.80929" lon="0.40178">
        <ele>959.332406</ele>
        <time>2021-08-14T13:58:29.619Z</time>
      </trkpt>
      <trkpt lat="42.80922" lon="0.4018">
        <ele>959.216097</ele>
        <time>2021-08-14T13:58:30.671Z</time>
      </trkpt>
      <trkpt lat="42.80919" lon="0.40189">
        <ele>959.101058</ele>
        <time>2021-08-14T13:58:31.740Z</time>
      </trkpt>
      <trkpt lat="42.80915" lon="0.40195">
        <ele>958.999886</ele>
        <time>2021-08-14T13:58:32.840Z</time>
      </trkpt>
      <trkpt lat="42.80912" lon="0.40199">
        <ele>958.926485</ele>
        <time>2021-08-14T13:58:33.676Z</time>
      </trkpt>
      <trkpt lat="42.80904" lon="0.40205">
        <ele>958.775407</ele>
        <time>2021-08-14T13:58:35.790Z</time>
      </trkpt>
      <trkpt lat="42.80902" lon="0.40202">
        <ele>958.71963</ele>
        <time>2021-08-14T13:58:36.660Z</time>
      </trkpt>
      <trkpt lat="42.80893" lon="0.402">
        <ele>958.579649</ele>
        <time>2021-08-14T13:58:38.472Z</time>
      </trkpt>
      <trkpt lat="42.80884" lon="0.40203">
        <ele>958.425151</ele>
        <time>2021-08-14T13:58:40.692Z</time>
      </trkpt>
      <trkpt lat="42.80893" lon="0.402">
        <ele>958.270653</ele>
        <time>2021-08-14T13:58:43.401Z</time>
      </trkpt>
      <trkpt lat="42.80902" lon="0.40202">
        <ele>958.130672</ele>
        <time>2021-08-14T13:58:45.950Z</time>
      </trkpt>
      <trkpt lat="42.80904" lon="0.40205">
        <ele>958.074895</ele>
        <time>2021-08-14T13:58:46.673Z</time>
      </trkpt>
      <trkpt lat="42.80912" lon="0.40199">
        <ele>957.923816</ele>
        <time>2021-08-14T13:58:48.126Z</time>
      </trkpt>
      <trkpt lat="42.80915" lon="0.40195">
        <ele>957.850416</ele>
        <time>2021-08-14T13:58:48.987Z</time>
      </trkpt>
      <trkpt lat="42.80919" lon="0.40189">
        <ele>957.749244</ele>
        <time>2021-08-14T13:58:50.268Z</time>
      </trkpt>
      <trkpt lat="42.80922" lon="0.4018">
        <ele>957.634204</ele>
        <time>2021-08-14T13:58:52.131Z</time>
      </trkpt>
      <trkpt lat="42.80918" lon="0.40173">
        <ele>957.52528</ele>
        <time>2021-08-14T13:58:53.432Z</time>
      </trkpt>
      <trkpt lat="42.80914" lon="0.40168">
        <ele>957.439629</ele>
        <time>2021-08-14T13:58:54.254Z</time>
      </trkpt>
      <trkpt lat="42.80899" lon="0.40157">
        <ele>957.1651</ele>
        <time>2021-08-14T13:58:57.450Z</time>
      </trkpt>
      <trkpt lat="42.80802" lon="0.40107">
        <ele>960.032258</ele>
        <time>2021-08-14T13:59:31.309Z</time>
      </trkpt>
      <trkpt lat="42.80784" lon="0.40093">
        <ele>960.773577</ele>
        <time>2021-08-14T13:59:38.667Z</time>
      </trkpt>
      <trkpt lat="42.8076" lon="0.40056">
        <ele>962.107836</ele>
        <time>2021-08-14T13:59:54.429Z</time>
      </trkpt>
      <trkpt lat="42.80746" lon="0.40035">
        <ele>962.863095</ele>
        <time>2021-08-14T14:00:04.571Z</time>
      </trkpt>
      <trkpt lat="42.80707" lon="0.39997">
        <ele>965.268139</ele>
        <time>2021-08-14T14:00:25.519Z</time>
      </trkpt>
      <trkpt lat="42.80675" lon="0.3998">
        <ele>967.17388</ele>
        <time>2021-08-14T14:00:41.284Z</time>
      </trkpt>
      <trkpt lat="42.80664" lon="0.39981">
        <ele>967.82892</ele>
        <time>2021-08-14T14:00:47.835Z</time>
      </trkpt>
      <trkpt lat="42.80646" lon="0.39983">
        <ele>968.826625</ele>
        <time>2021-08-14T14:00:56.249Z</time>
      </trkpt>
      <trkpt lat="42.80597" lon="0.39978">
        <ele>971.605784</ele>
        <time>2021-08-14T14:01:18.631Z</time>
      </trkpt>
      <trkpt lat="42.80475" lon="0.4007">
        <ele>978.697454</ele>
        <time>2021-08-14T14:02:14.693Z</time>
      </trkpt>
      <trkpt lat="42.80418" lon="0.40089">
        <ele>981.604173</ele>
        <time>2021-08-14T14:02:39.248Z</time>
      </trkpt>
      <trkpt lat="42.80375" lon="0.40078">
        <ele>984.112097</ele>
        <time>2021-08-14T14:02:58.603Z</time>
      </trkpt>
      <trkpt lat="42.80268" lon="0.401">
        <ele>990.957329</ele>
        <time>2021-08-14T14:03:50.825Z</time>
      </trkpt>
      <trkpt lat="42.80178" lon="0.40107">
        <ele>996.986225</ele>
        <time>2021-08-14T14:04:35.930Z</time>
      </trkpt>
      <trkpt lat="42.80172" lon="0.40092">
        <ele>997.857546</ele>
        <time>2021-08-14T14:04:42.029Z</time>
      </trkpt>
      <trkpt lat="42.80182" lon="0.40082">
        <ele>998.736556</ele>
        <time>2021-08-14T14:04:48.050Z</time>
      </trkpt>
      <trkpt lat="42.80229" lon="0.4007">
        <ele>1002.055941</ele>
        <time>2021-08-14T14:05:11.978Z</time>
      </trkpt>
      <trkpt lat="42.80277" lon="0.40047">
        <ele>1005.60503</ele>
        <time>2021-08-14T14:05:38.007Z</time>
      </trkpt>
      <trkpt lat="42.80315" lon="0.40021">
        <ele>1008.853755</ele>
        <time>2021-08-14T14:05:59.712Z</time>
      </trkpt>
      <trkpt lat="42.80334" lon="0.40011">
        <ele>1010.405119</ele>
        <time>2021-08-14T14:06:10.218Z</time>
      </trkpt>
      <trkpt lat="42.8038" lon="0.39981">
        <ele>1014.381122</ele>
        <time>2021-08-14T14:06:36.682Z</time>
      </trkpt>
      <trkpt lat="42.8044" lon="0.39929">
        <ele>1019.936225</ele>
        <time>2021-08-14T14:07:15.901Z</time>
      </trkpt>
      <trkpt lat="42.80442" lon="0.39919">
        <ele>1020.556478</ele>
        <time>2021-08-14T14:07:20.490Z</time>
      </trkpt>
      <trkpt lat="42.80435" lon="0.39912">
        <ele>1021.30835</ele>
        <time>2021-08-14T14:07:25.477Z</time>
      </trkpt>
      <trkpt lat="42.80389" lon="0.39942">
        <ele>1025.868525</ele>
        <time>2021-08-14T14:07:54.661Z</time>
      </trkpt>
      <trkpt lat="42.80358" lon="0.39952">
        <ele>1028.690152</ele>
        <time>2021-08-14T14:08:12.505Z</time>
      </trkpt>
      <trkpt lat="42.80307" lon="0.39955">
        <ele>1033.279487</ele>
        <time>2021-08-14T14:08:42.156Z</time>
      </trkpt>
      <trkpt lat="42.80194" lon="0.39988">
        <ele>1044.42816</ele>
        <time>2021-08-14T14:09:52.844Z</time>
      </trkpt>
      <trkpt lat="42.80185" lon="0.39982">
        <ele>1045.445476</ele>
        <time>2021-08-14T14:09:59.268Z</time>
      </trkpt>
      <trkpt lat="42.80183" lon="0.39972">
        <ele>1046.203458</ele>
        <time>2021-08-14T14:10:04.157Z</time>
      </trkpt>
      <trkpt lat="42.8019" lon="0.39956">
        <ele>1047.512091</ele>
        <time>2021-08-14T14:10:12.517Z</time>
      </trkpt>
      <trkpt lat="42.8026" lon="0.39928">
        <ele>1054.843867</ele>
        <time>2021-08-14T14:10:59.361Z</time>
      </trkpt>
      <trkpt lat="42.80353" lon="0.39868">
        <ele>1064.868734</ele>
        <time>2021-08-14T14:12:02.588Z</time>
      </trkpt>
      <trkpt lat="42.80364" lon="0.39853">
        <ele>1066.355542</ele>
        <time>2021-08-14T14:12:11.159Z</time>
      </trkpt>
      <trkpt lat="42.80361" lon="0.39841">
        <ele>1067.260314</ele>
        <time>2021-08-14T14:12:16.568Z</time>
      </trkpt>
      <trkpt lat="42.80356" lon="0.39838">
        <ele>1067.800935</ele>
        <time>2021-08-14T14:12:19.784Z</time>
      </trkpt>
      <trkpt lat="42.80322" lon="0.39861">
        <ele>1071.482784</ele>
        <time>2021-08-14T14:12:40.461Z</time>
      </trkpt>
      <trkpt lat="42.80176" lon="0.39895">
        <ele>1089.616935</ele>
        <time>2021-08-14T14:14:23.168Z</time>
      </trkpt>
      <trkpt lat="42.80174" lon="0.39894">
        <ele>1089.977116</ele>
        <time>2021-08-14T14:14:25.750Z</time>
      </trkpt>
      <trkpt lat="42.80172" lon="0.39893">
        <ele>1090.179575</ele>
        <time>2021-08-14T14:14:27.866Z</time>
      </trkpt>
      <trkpt lat="42.80169" lon="0.39885">
        <ele>1091.018189</ele>
        <time>2021-08-14T14:14:32.525Z</time>
      </trkpt>
      <trkpt lat="42.80172" lon="0.39877">
        <ele>1091.783529</ele>
        <time>2021-08-14T14:14:36.757Z</time>
      </trkpt>
      <trkpt lat="42.80225" lon="0.39857">
        <ele>1100.009509</ele>
        <time>2021-08-14T14:15:19.853Z</time>
      </trkpt>
      <trkpt lat="42.80266" lon="0.39826">
        <ele>1107.737249</ele>
        <time>2021-08-14T14:16:05.383Z</time>
      </trkpt>
      <trkpt lat="42.80286" lon="0.3978">
        <ele>1114.176194</ele>
        <time>2021-08-14T14:16:43.148Z</time>
      </trkpt>
      <trkpt lat="42.80391" lon="0.39639">
        <ele>1135.333045</ele>
        <time>2021-08-14T14:18:47.250Z</time>
      </trkpt>
      <trkpt lat="42.80423" lon="0.3961">
        <ele>1140.356367</ele>
        <time>2021-08-14T14:19:15.162Z</time>
      </trkpt>
      <trkpt lat="42.80424" lon="0.39598">
        <ele>1141.532555</ele>
        <time>2021-08-14T14:19:21.247Z</time>
      </trkpt>
      <trkpt lat="42.80417" lon="0.39593">
        <ele>1142.536091</ele>
        <time>2021-08-14T14:19:26.418Z</time>
      </trkpt>
      <trkpt lat="42.80381" lon="0.39619">
        <ele>1147.619311</ele>
        <time>2021-08-14T14:19:52.014Z</time>
      </trkpt>
      <trkpt lat="42.80298" lon="0.39654">
        <ele>1154.721393</ele>
        <time>2021-08-14T14:20:38.515Z</time>
      </trkpt>
      <trkpt lat="42.80262" lon="0.39685">
        <ele>1158.232795</ele>
        <time>2021-08-14T14:20:59.673Z</time>
      </trkpt>
      <trkpt lat="42.80227" lon="0.39701">
        <ele>1161.269197</ele>
        <time>2021-08-14T14:21:18.688Z</time>
      </trkpt>
      <trkpt lat="42.80156" lon="0.39758">
        <ele>1170.709985</ele>
        <time>2021-08-14T14:22:08.782Z</time>
      </trkpt>
      <trkpt lat="42.80137" lon="0.39766">
        <ele>1173.041428</ele>
        <time>2021-08-14T14:22:22.809Z</time>
      </trkpt>
      <trkpt lat="42.80123" lon="0.39758">
        <ele>1174.82213</ele>
        <time>2021-08-14T14:22:33.982Z</time>
      </trkpt>
      <trkpt lat="42.80122" lon="0.39743">
        <ele>1176.063959</ele>
        <time>2021-08-14T14:22:42.368Z</time>
      </trkpt>
      <trkpt lat="42.80129" lon="0.39721">
        <ele>1178.108697</ele>
        <time>2021-08-14T14:22:56.110Z</time>
      </trkpt>
      <trkpt lat="42.80153" lon="0.3968">
        <ele>1182.66946</ele>
        <time>2021-08-14T14:23:27.893Z</time>
      </trkpt>
      <trkpt lat="42.80197" lon="0.39625">
        <ele>1190.064569</ele>
        <time>2021-08-14T14:24:15.820Z</time>
      </trkpt>
      <trkpt lat="42.80226" lon="0.3957">
        <ele>1196.115116</ele>
        <time>2021-08-14T14:24:51.739Z</time>
      </trkpt>
      <trkpt lat="42.80229" lon="0.39561">
        <ele>1197.059077</ele>
        <time>2021-08-14T14:24:56.824Z</time>
      </trkpt>
      <trkpt lat="42.80226" lon="0.3955">
        <ele>1198.10423</ele>
        <time>2021-08-14T14:25:02.504Z</time>
      </trkpt>
      <trkpt lat="42.80218" lon="0.39546">
        <ele>1199.258729</ele>
        <time>2021-08-14T14:25:08.661Z</time>
      </trkpt>
      <trkpt lat="42.80205" lon="0.39552">
        <ele>1200.882008</ele>
        <time>2021-08-14T14:25:16.564Z</time>
      </trkpt>
      <trkpt lat="42.80157" lon="0.39603">
        <ele>1208.211479</ele>
        <time>2021-08-14T14:25:54.960Z</time>
      </trkpt>
      <trkpt lat="42.80069" lon="0.39657">
        <ele>1219.196418</ele>
        <time>2021-08-14T14:26:58.952Z</time>
      </trkpt>
      <trkpt lat="42.80057" lon="0.39658">
        <ele>1220.563589</ele>
        <time>2021-08-14T14:27:05.326Z</time>
      </trkpt>
      <trkpt lat="42.80053" lon="0.39656">
        <ele>1221.067868</ele>
        <time>2021-08-14T14:27:06.559Z</time>
      </trkpt>
      <trkpt lat="42.80052" lon="0.39649">
        <ele>1221.624116</ele>
        <time>2021-08-14T14:27:12.242Z</time>
      </trkpt>
      <trkpt lat="42.80055" lon="0.39635">
        <ele>1222.913364</ele>
        <time>2021-08-14T14:27:19.087Z</time>
      </trkpt>
      <trkpt lat="42.80092" lon="0.39593">
        <ele>1229.06296</ele>
        <time>2021-08-14T14:27:52.753Z</time>
      </trkpt>
      <trkpt lat="42.80132" lon="0.39524">
        <ele>1238.317447</ele>
        <time>2021-08-14T14:28:48.296Z</time>
      </trkpt>
      <trkpt lat="42.80162" lon="0.39501">
        <ele>1243.265492</ele>
        <time>2021-08-14T14:29:20.503Z</time>
      </trkpt>
      <trkpt lat="42.80219" lon="0.39429">
        <ele>1253.250884</ele>
        <time>2021-08-14T14:30:18.452Z</time>
      </trkpt>
      <trkpt lat="42.80219" lon="0.39417">
        <ele>1254.025265</ele>
        <time>2021-08-14T14:30:24.513Z</time>
      </trkpt>
      <trkpt lat="42.80207" lon="0.39413">
        <ele>1255.157359</ele>
        <time>2021-08-14T14:30:31.961Z</time>
      </trkpt>
      <trkpt lat="42.80185" lon="0.39428">
        <ele>1257.411219</ele>
        <time>2021-08-14T14:30:48.141Z</time>
      </trkpt>
      <trkpt lat="42.80153" lon="0.3945">
        <ele>1260.657199</ele>
        <time>2021-08-14T14:31:08.327Z</time>
      </trkpt>
      <trkpt lat="42.80041" lon="0.39511">
        <ele>1271.026111</ele>
        <time>2021-08-14T14:32:07.640Z</time>
      </trkpt>
      <trkpt lat="42.79931" lon="0.39526">
        <ele>1279.388593</ele>
        <time>2021-08-14T14:33:04.526Z</time>
      </trkpt>
      <trkpt lat="42.79919" lon="0.39524">
        <ele>1280.375553</ele>
        <time>2021-08-14T14:33:11.668Z</time>
      </trkpt>
      <trkpt lat="42.79901" lon="0.39519">
        <ele>1281.905812</ele>
        <time>2021-08-14T14:33:22.566Z</time>
      </trkpt>
      <trkpt lat="42.79881" lon="0.39502">
        <ele>1284.583863</ele>
        <time>2021-08-14T14:33:35.809Z</time>
      </trkpt>
      <trkpt lat="42.7986" lon="0.3946">
        <ele>1288.739332</ele>
        <time>2021-08-14T14:34:00.418Z</time>
      </trkpt>
      <trkpt lat="42.79851" lon="0.3945">
        <ele>1290.003269</ele>
        <time>2021-08-14T14:34:08.700Z</time>
      </trkpt>
      <trkpt lat="42.79802" lon="0.39448">
        <ele>1295.585451</ele>
        <time>2021-08-14T14:34:42.334Z</time>
      </trkpt>
      <trkpt lat="42.79737" lon="0.39417">
        <ele>1303.392122</ele>
        <time>2021-08-14T14:35:32.550Z</time>
      </trkpt>
      <trkpt lat="42.79735" lon="0.39404">
        <ele>1304.518934</ele>
        <time>2021-08-14T14:35:39.044Z</time>
      </trkpt>
      <trkpt lat="42.79736" lon="0.39402">
        <ele>1304.756755</ele>
        <time>2021-08-14T14:35:41.284Z</time>
      </trkpt>
      <trkpt lat="42.7974" lon="0.39398">
        <ele>1305.264174</ele>
        <time>2021-08-14T14:35:46.160Z</time>
      </trkpt>
      <trkpt lat="42.79785" lon="0.39393">
        <ele>1310.58702</ele>
        <time>2021-08-14T14:36:17.628Z</time>
      </trkpt>
      <trkpt lat="42.798" lon="0.39378">
        <ele>1312.792951</ele>
        <time>2021-08-14T14:36:28.470Z</time>
      </trkpt>
      <trkpt lat="42.7981" lon="0.39345">
        <ele>1315.8652</ele>
        <time>2021-08-14T14:36:47.119Z</time>
      </trkpt>
      <trkpt lat="42.7981" lon="0.39322">
        <ele>1317.797483</ele>
        <time>2021-08-14T14:37:00.667Z</time>
      </trkpt>
      <trkpt lat="42.7981" lon="0.39312">
        <ele>1318.733315</ele>
        <time>2021-08-14T14:37:06.719Z</time>
      </trkpt>
      <trkpt lat="42.79818" lon="0.39295">
        <ele>1320.412592</ele>
        <time>2021-08-14T14:37:13.644Z</time>
      </trkpt>
      <trkpt lat="42.79831" lon="0.39289">
        <ele>1322.008129</ele>
        <time>2021-08-14T14:37:24.826Z</time>
      </trkpt>
      <trkpt lat="42.79854" lon="0.39283">
        <ele>1324.313225</ele>
        <time>2021-08-14T14:37:38.913Z</time>
      </trkpt>
      <trkpt lat="42.79873" lon="0.39274">
        <ele>1326.069302</ele>
        <time>2021-08-14T14:37:51.449Z</time>
      </trkpt>
      <trkpt lat="42.79977" lon="0.39223">
        <ele>1335.839521</ele>
        <time>2021-08-14T14:38:52.641Z</time>
      </trkpt>
      <trkpt lat="42.80046" lon="0.39164">
        <ele>1343.241223</ele>
        <time>2021-08-14T14:39:36.235Z</time>
      </trkpt>
      <trkpt lat="42.8009" lon="0.39149">
        <ele>1347.501161</ele>
        <time>2021-08-14T14:40:03.283Z</time>
      </trkpt>
      <trkpt lat="42.80099" lon="0.39132">
        <ele>1348.928651</ele>
        <time>2021-08-14T14:40:12.711Z</time>
      </trkpt>
      <trkpt lat="42.80112" lon="0.39086">
        <ele>1352.334318</ele>
        <time>2021-08-14T14:40:35.922Z</time>
      </trkpt>
      <trkpt lat="42.80172" lon="0.39023">
        <ele>1359.350847</ele>
        <time>2021-08-14T14:41:24.846Z</time>
      </trkpt>
      <trkpt lat="42.80248" lon="0.38877">
        <ele>1371.405489</ele>
        <time>2021-08-14T14:42:42.099Z</time>
      </trkpt>
      <trkpt lat="42.80289" lon="0.38837">
        <ele>1374.73829</ele>
        <time>2021-08-14T14:43:07.276Z</time>
      </trkpt>
      <trkpt lat="42.80356" lon="0.3881">
        <ele>1379.106539</ele>
        <time>2021-08-14T14:43:40.970Z</time>
      </trkpt>
      <trkpt lat="42.80357" lon="0.38804">
        <ele>1379.377284</ele>
        <time>2021-08-14T14:43:42.203Z</time>
      </trkpt>
      <trkpt lat="42.80356" lon="0.388">
        <ele>1379.605586</ele>
        <time>2021-08-14T14:43:45.922Z</time>
      </trkpt>
      <trkpt lat="42.80348" lon="0.38795">
        <ele>1380.127643</ele>
        <time>2021-08-14T14:43:49.351Z</time>
      </trkpt>
      <trkpt lat="42.80258" lon="0.3883">
        <ele>1384.449899</ele>
        <time>2021-08-14T14:44:26.747Z</time>
      </trkpt>
      <trkpt lat="42.80231" lon="0.38849">
        <ele>1385.282118</ele>
        <time>2021-08-14T14:44:38.749Z</time>
      </trkpt>
      <trkpt lat="42.80186" lon="0.38896">
        <ele>1386.834179</ele>
        <time>2021-08-14T14:44:57.297Z</time>
      </trkpt>
      <trkpt lat="42.80143" lon="0.38924">
        <ele>1388.125543</ele>
        <time>2021-08-14T14:45:09.489Z</time>
      </trkpt>
      <trkpt lat="42.80035" lon="0.38977">
        <ele>1389.06884</ele>
        <time>2021-08-14T14:45:33.851Z</time>
      </trkpt>
      <trkpt lat="42.7999" lon="0.38986">
        <ele>1389.434875</ele>
        <time>2021-08-14T14:45:42.914Z</time>
      </trkpt>
      <trkpt lat="42.79957" lon="0.3901">
        <ele>1390.643296</ele>
        <time>2021-08-14T14:45:56.293Z</time>
      </trkpt>
      <trkpt lat="42.79935" lon="0.39008">
        <ele>1392.097781</ele>
        <time>2021-08-14T14:46:07.006Z</time>
      </trkpt>
      <trkpt lat="42.79871" lon="0.38984">
        <ele>1396.444753</ele>
        <time>2021-08-14T14:46:41.436Z</time>
      </trkpt>
      <trkpt lat="42.79859" lon="0.38971">
        <ele>1397.402121</ele>
        <time>2021-08-14T14:46:48.228Z</time>
      </trkpt>
      <trkpt lat="42.79855" lon="0.38956">
        <ele>1398.178019</ele>
        <time>2021-08-14T14:46:55.138Z</time>
      </trkpt>
      <trkpt lat="42.79852" lon="0.38939">
        <ele>1399.012126</ele>
        <time>2021-08-14T14:47:03.462Z</time>
      </trkpt>
      <trkpt lat="42.79842" lon="0.38905">
        <ele>1400.756433</ele>
        <time>2021-08-14T14:47:16.783Z</time>
      </trkpt>
      <trkpt lat="42.79827" lon="0.3888">
        <ele>1402.535377</ele>
        <time>2021-08-14T14:47:27.255Z</time>
      </trkpt>
      <trkpt lat="42.79794" lon="0.38835">
        <ele>1406.514188</ele>
        <time>2021-08-14T14:47:56.169Z</time>
      </trkpt>
      <trkpt lat="42.79797" lon="0.38831">
        <ele>1406.877343</ele>
        <time>2021-08-14T14:47:58.350Z</time>
      </trkpt>
      <trkpt lat="42.79812" lon="0.38833">
        <ele>1408.152706</ele>
        <time>2021-08-14T14:48:09.370Z</time>
      </trkpt>
      <trkpt lat="42.79828" lon="0.38845">
        <ele>1409.672956</ele>
        <time>2021-08-14T14:48:20.270Z</time>
      </trkpt>
      <trkpt lat="42.79898" lon="0.38899">
        <ele>1416.433431</ele>
        <time>2021-08-14T14:49:02.907Z</time>
      </trkpt>
      <trkpt lat="42.79907" lon="0.38903">
        <ele>1417.080332</ele>
        <time>2021-08-14T14:49:10.129Z</time>
      </trkpt>
      <trkpt lat="42.79923" lon="0.38895">
        <ele>1418.41549</ele>
        <time>2021-08-14T14:49:17.706Z</time>
      </trkpt>
      <trkpt lat="42.79949" lon="0.38857">
        <ele>1421.311562</ele>
        <time>2021-08-14T14:49:34.596Z</time>
      </trkpt>
      <trkpt lat="42.79973" lon="0.38837">
        <ele>1423.467381</ele>
        <time>2021-08-14T14:49:49.858Z</time>
      </trkpt>
      <trkpt lat="42.80016" lon="0.38823">
        <ele>1426.830488</ele>
        <time>2021-08-14T14:50:14.079Z</time>
      </trkpt>
      <trkpt lat="42.80051" lon="0.3882">
        <ele>1429.493048</ele>
        <time>2021-08-14T14:50:35.975Z</time>
      </trkpt>
      <trkpt lat="42.80111" lon="0.38799">
        <ele>1433.957358</ele>
        <time>2021-08-14T14:51:08.968Z</time>
      </trkpt>
      <trkpt lat="42.80119" lon="0.38791">
        <ele>1434.668802</ele>
        <time>2021-08-14T14:51:14.106Z</time>
      </trkpt>
      <trkpt lat="42.80116" lon="0.3878">
        <ele>1435.266368</ele>
        <time>2021-08-14T14:51:18.690Z</time>
      </trkpt>
      <trkpt lat="42.80107" lon="0.38776">
        <ele>1435.976418</ele>
        <time>2021-08-14T14:51:23.965Z</time>
      </trkpt>
      <trkpt lat="42.80064" lon="0.38793">
        <ele>1439.140411</ele>
        <time>2021-08-14T14:51:46.480Z</time>
      </trkpt>
      <trkpt lat="42.80039" lon="0.38791">
        <ele>1440.988076</ele>
        <time>2021-08-14T14:51:59.418Z</time>
      </trkpt>
      <trkpt lat="42.80013" lon="0.38766">
        <ele>1443.17871</ele>
        <time>2021-08-14T14:52:14.564Z</time>
      </trkpt>
      <trkpt lat="42.7999" lon="0.38752">
        <ele>1444.693661</ele>
        <time>2021-08-14T14:52:26.228Z</time>
      </trkpt>
      <trkpt lat="42.79974" lon="0.38745">
        <ele>1445.696565</ele>
        <time>2021-08-14T14:52:34.015Z</time>
      </trkpt>
      <trkpt lat="42.7993" lon="0.38741">
        <ele>1448.368373</ele>
        <time>2021-08-14T14:52:53.733Z</time>
      </trkpt>
      <trkpt lat="42.79902" lon="0.38731">
        <ele>1450.106041</ele>
        <time>2021-08-14T14:53:06.912Z</time>
      </trkpt>
      <trkpt lat="42.79795" lon="0.38624">
        <ele>1458.49555</ele>
        <time>2021-08-14T14:54:12.331Z</time>
      </trkpt>
      <trkpt lat="42.79764" lon="0.38585">
        <ele>1461.27546</ele>
        <time>2021-08-14T14:54:34.089Z</time>
      </trkpt>
      <trkpt lat="42.79731" lon="0.38557">
        <ele>1463.820118</ele>
        <time>2021-08-14T14:54:53.861Z</time>
      </trkpt>
      <trkpt lat="42.79675" lon="0.38466">
        <ele>1468.243751</ele>
        <time>2021-08-14T14:55:35.359Z</time>
      </trkpt>
      <trkpt lat="42.79659" lon="0.38448">
        <ele>1469.154689</ele>
        <time>2021-08-14T14:55:43.807Z</time>
      </trkpt>
      <trkpt lat="42.7964" lon="0.38435">
        <ele>1470.107077</ele>
        <time>2021-08-14T14:55:52.990Z</time>
      </trkpt>
      <trkpt lat="42.79595" lon="0.38451">
        <ele>1472.150646</ele>
        <time>2021-08-14T14:56:09.596Z</time>
      </trkpt>
      <trkpt lat="42.79556" lon="0.38463">
        <ele>1473.779255</ele>
        <time>2021-08-14T14:56:22.266Z</time>
      </trkpt>
      <trkpt lat="42.79548" lon="0.38465">
        <ele>1474.056116</ele>
        <time>2021-08-14T14:56:25.829Z</time>
      </trkpt>
      <trkpt lat="42.79529" lon="0.38456">
        <ele>1474.675716</ele>
        <time>2021-08-14T14:56:31.528Z</time>
      </trkpt>
      <trkpt lat="42.79472" lon="0.38355">
        <ele>1477.656494</ele>
        <time>2021-08-14T14:57:02.858Z</time>
      </trkpt>
      <trkpt lat="42.79455" lon="0.38339">
        <ele>1478.309895</ele>
        <time>2021-08-14T14:57:09.759Z</time>
      </trkpt>
      <trkpt lat="42.79398" lon="0.38332">
        <ele>1481.774124</ele>
        <time>2021-08-14T14:57:33.918Z</time>
      </trkpt>
      <trkpt lat="42.7933" lon="0.38293">
        <ele>1488.1674</ele>
        <time>2021-08-14T14:58:13.631Z</time>
      </trkpt>
      <trkpt lat="42.79305" lon="0.38256">
        <ele>1491.405889</ele>
        <time>2021-08-14T14:58:37.721Z</time>
      </trkpt>
      <trkpt lat="42.79277" lon="0.38188">
        <ele>1497.169418</ele>
        <time>2021-08-14T14:59:21.486Z</time>
      </trkpt>
      <trkpt lat="42.79263" lon="0.38165">
        <ele>1499.963845</ele>
        <time>2021-08-14T14:59:34.810Z</time>
      </trkpt>
      <trkpt lat="42.79255" lon="0.38157">
        <ele>1501.221211</ele>
        <time>2021-08-14T14:59:43.626Z</time>
      </trkpt>
      <trkpt lat="42.79236" lon="0.3815">
        <ele>1503.735608</ele>
        <time>2021-08-14T14:59:59.127Z</time>
      </trkpt>
      <trkpt lat="42.79192" lon="0.38116">
        <ele>1510.275456</ele>
        <time>2021-08-14T15:00:36.100Z</time>
      </trkpt>
      <trkpt lat="42.79187" lon="0.38106">
        <ele>1511.396386</ele>
        <time>2021-08-14T15:00:43.669Z</time>
      </trkpt>
      <trkpt lat="42.79186" lon="0.38103">
        <ele>1511.743104</ele>
        <time>2021-08-14T15:00:46.553Z</time>
      </trkpt>
      <trkpt lat="42.79186" lon="0.38102">
        <ele>1511.818768</ele>
        <time>2021-08-14T15:00:47.022Z</time>
      </trkpt>
      <trkpt lat="42.79186" lon="0.38095">
        <ele>1512.462044</ele>
        <time>2021-08-14T15:00:50.458Z</time>
      </trkpt>
      <trkpt lat="42.79188" lon="0.38088">
        <ele>1513.186059</ele>
        <time>2021-08-14T15:00:54.636Z</time>
      </trkpt>
      <trkpt lat="42.79194" lon="0.38086">
        <ele>1513.927631</ele>
        <time>2021-08-14T15:00:57.183Z</time>
      </trkpt>
      <trkpt lat="42.792" lon="0.38087">
        <ele>1514.727232</ele>
        <time>2021-08-14T15:01:02.611Z</time>
      </trkpt>
      <trkpt lat="42.7924" lon="0.38106">
        <ele>1519.907757</ele>
        <time>2021-08-14T15:01:36.336Z</time>
      </trkpt>
      <trkpt lat="42.79253" lon="0.3811">
        <ele>1521.350317</ele>
        <time>2021-08-14T15:01:47.729Z</time>
      </trkpt>
      <trkpt lat="42.79319" lon="0.38116">
        <ele>1528.768297</ele>
        <time>2021-08-14T15:02:32.511Z</time>
      </trkpt>
      <trkpt lat="42.79372" lon="0.38158">
        <ele>1535.57562</ele>
        <time>2021-08-14T15:03:10.253Z</time>
      </trkpt>
      <trkpt lat="42.79398" lon="0.38162">
        <ele>1538.320562</ele>
        <time>2021-08-14T15:03:28.739Z</time>
      </trkpt>
      <trkpt lat="42.79421" lon="0.3816">
        <ele>1539.506754</ele>
        <time>2021-08-14T15:03:42.889Z</time>
      </trkpt>
      <trkpt lat="42.79474" lon="0.38142">
        <ele>1542.352006</ele>
        <time>2021-08-14T15:04:14.534Z</time>
      </trkpt>
      <trkpt lat="42.79534" lon="0.38097">
        <ele>1545.908002</ele>
        <time>2021-08-14T15:04:43.951Z</time>
      </trkpt>
      <trkpt lat="42.79552" lon="0.38095">
        <ele>1546.8327</ele>
        <time>2021-08-14T15:04:48.896Z</time>
      </trkpt>
      <trkpt lat="42.79594" lon="0.38106">
        <ele>1544.05116</ele>
        <time>2021-08-14T15:04:56.644Z</time>
      </trkpt>
      <trkpt lat="42.7967" lon="0.38079">
        <ele>1535.514097</ele>
        <time>2021-08-14T15:05:07.954Z</time>
      </trkpt>
      <trkpt lat="42.79687" lon="0.38053">
        <ele>1532.785528</ele>
        <time>2021-08-14T15:05:11.365Z</time>
      </trkpt>
      <trkpt lat="42.79704" lon="0.37999">
        <ele>1528.062622</ele>
        <time>2021-08-14T15:05:17.172Z</time>
      </trkpt>
      <trkpt lat="42.79705" lon="0.3798">
        <ele>1525.476241</ele>
        <time>2021-08-14T15:05:19.036Z</time>
      </trkpt>
      <trkpt lat="42.79693" lon="0.37923">
        <ele>1517.02277</ele>
        <time>2021-08-14T15:05:24.815Z</time>
      </trkpt>
      <trkpt lat="42.79689" lon="0.37865">
        <ele>1508.785309</ele>
        <time>2021-08-14T15:05:30.436Z</time>
      </trkpt>
      <trkpt lat="42.79698" lon="0.37797">
        <ele>1498.938846</ele>
        <time>2021-08-14T15:05:37.192Z</time>
      </trkpt>
      <trkpt lat="42.79699" lon="0.37736">
        <ele>1491.998513</ele>
        <time>2021-08-14T15:05:43.201Z</time>
      </trkpt>
      <trkpt lat="42.79695" lon="0.37697">
        <ele>1489.84959</ele>
        <time>2021-08-14T15:05:47.249Z</time>
      </trkpt>
      <trkpt lat="42.79697" lon="0.3768">
        <ele>1488.943028</ele>
        <time>2021-08-14T15:05:49.005Z</time>
      </trkpt>
      <trkpt lat="42.79706" lon="0.37642">
        <ele>1486.781301</ele>
        <time>2021-08-14T15:05:53.298Z</time>
      </trkpt>
      <trkpt lat="42.79719" lon="0.37618">
        <ele>1485.1988</ele>
        <time>2021-08-14T15:05:56.629Z</time>
      </trkpt>
      <trkpt lat="42.79755" lon="0.37588">
        <ele>1482.152773</ele>
        <time>2021-08-14T15:06:03.931Z</time>
      </trkpt>
      <trkpt lat="42.79773" lon="0.37563">
        <ele>1480.256629</ele>
        <time>2021-08-14T15:06:09.760Z</time>
      </trkpt>
      <trkpt lat="42.79818" lon="0.37442">
        <ele>1480.76842</ele>
        <time>2021-08-14T15:06:41.639Z</time>
      </trkpt>
      <trkpt lat="42.79832" lon="0.37423">
        <ele>1480.953622</ele>
        <time>2021-08-14T15:06:48.473Z</time>
      </trkpt>
      <trkpt lat="42.79846" lon="0.37413">
        <ele>1481.094639</ele>
        <time>2021-08-14T15:06:53.100Z</time>
      </trkpt>
      <trkpt lat="42.79901" lon="0.37403">
        <ele>1481.227912</ele>
        <time>2021-08-14T15:07:08.620Z</time>
      </trkpt>
      <trkpt lat="42.79968" lon="0.37362">
        <ele>1476.439478</ele>
        <time>2021-08-14T15:07:20.734Z</time>
      </trkpt>
      <trkpt lat="42.80015" lon="0.37356">
        <ele>1473.375952</ele>
        <time>2021-08-14T15:07:27.578Z</time>
      </trkpt>
      <trkpt lat="42.80027" lon="0.37346">
        <ele>1472.441772</ele>
        <time>2021-08-14T15:07:29.605Z</time>
      </trkpt>
      <trkpt lat="42.80037" lon="0.37328">
        <ele>1471.350669</ele>
        <time>2021-08-14T15:07:31.974Z</time>
      </trkpt>
      <trkpt lat="42.8006" lon="0.37228">
        <ele>1465.809471</ele>
        <time>2021-08-14T15:07:42.724Z</time>
      </trkpt>
      <trkpt lat="42.80059" lon="0.37161">
        <ele>1462.064232</ele>
        <time>2021-08-14T15:07:49.848Z</time>
      </trkpt>
      <trkpt lat="42.80068" lon="0.37093">
        <ele>1458.252793</ele>
        <time>2021-08-14T15:07:57.510Z</time>
      </trkpt>
      <trkpt lat="42.80082" lon="0.37057">
        <ele>1456.278359</ele>
        <time>2021-08-14T15:08:02.700Z</time>
      </trkpt>
      <trkpt lat="42.8009" lon="0.37047">
        <ele>1456.388363</ele>
        <time>2021-08-14T15:08:04.985Z</time>
      </trkpt>
      <trkpt lat="42.80111" lon="0.37049">
        <ele>1456.584558</ele>
        <time>2021-08-14T15:08:10.061Z</time>
      </trkpt>
      <trkpt lat="42.80148" lon="0.37097">
        <ele>1457.05944</ele>
        <time>2021-08-14T15:08:25.989Z</time>
      </trkpt>
      <trkpt lat="42.80174" lon="0.37146">
        <ele>1457.476688</ele>
        <time>2021-08-14T15:08:41.649Z</time>
      </trkpt>
      <trkpt lat="42.80192" lon="0.37152">
        <ele>1457.656789</ele>
        <time>2021-08-14T15:08:48.527Z</time>
      </trkpt>
      <trkpt lat="42.80231" lon="0.37126">
        <ele>1457.595864</ele>
        <time>2021-08-14T15:09:02.151Z</time>
      </trkpt>
      <trkpt lat="42.80251" lon="0.37103">
        <ele>1456.952048</ele>
        <time>2021-08-14T15:09:08.731Z</time>
      </trkpt>
      <trkpt lat="42.80304" lon="0.3699">
        <ele>1454.552008</ele>
        <time>2021-08-14T15:09:26.042Z</time>
      </trkpt>
      <trkpt lat="42.80333" lon="0.36971">
        <ele>1453.763154</ele>
        <time>2021-08-14T15:09:31.226Z</time>
      </trkpt>
      <trkpt lat="42.80359" lon="0.3693">
        <ele>1450.489459</ele>
        <time>2021-08-14T15:09:37.278Z</time>
      </trkpt>
      <trkpt lat="42.80394" lon="0.36911">
        <ele>1446.575702</ele>
        <time>2021-08-14T15:09:42.818Z</time>
      </trkpt>
      <trkpt lat="42.80441" lon="0.36894">
        <ele>1441.658924</ele>
        <time>2021-08-14T15:09:49.650Z</time>
      </trkpt>
      <trkpt lat="42.8045" lon="0.36891">
        <ele>1440.715708</ele>
        <time>2021-08-14T15:09:50.999Z</time>
      </trkpt>
      <trkpt lat="42.80466" lon="0.36882">
        <ele>1438.962053</ele>
        <time>2021-08-14T15:09:53.369Z</time>
      </trkpt>
      <trkpt lat="42.80473" lon="0.36875">
        <ele>1438.018802</ele>
        <time>2021-08-14T15:09:54.651Z</time>
      </trkpt>
      <trkpt lat="42.80486" lon="0.36863">
        <ele>1436.479242</ele>
        <time>2021-08-14T15:09:56.785Z</time>
      </trkpt>
      <trkpt lat="42.805" lon="0.36845">
        <ele>1434.078545</ele>
        <time>2021-08-14T15:09:59.383Z</time>
      </trkpt>
      <trkpt lat="42.80565" lon="0.36806">
        <ele>1422.017405</ele>
        <time>2021-08-14T15:10:09.040Z</time>
      </trkpt>
      <trkpt lat="42.80582" lon="0.36777">
        <ele>1417.470153</ele>
        <time>2021-08-14T15:10:12.645Z</time>
      </trkpt>
      <trkpt lat="42.80589" lon="0.36739">
        <ele>1412.605768</ele>
        <time>2021-08-14T15:10:16.478Z</time>
      </trkpt>
      <trkpt lat="42.80595" lon="0.36643">
        <ele>1402.399878</ele>
        <time>2021-08-14T15:10:25.935Z</time>
      </trkpt>
      <trkpt lat="42.80611" lon="0.36546">
        <ele>1395.142564</ele>
        <time>2021-08-14T15:10:35.999Z</time>
      </trkpt>
      <trkpt lat="42.80617" lon="0.36427">
        <ele>1387.191659</ele>
        <time>2021-08-14T15:10:49.800Z</time>
      </trkpt>
      <trkpt lat="42.80631" lon="0.36408">
        <ele>1387.792251</ele>
        <time>2021-08-14T15:10:56.317Z</time>
      </trkpt>
      <trkpt lat="42.80718" lon="0.36357">
        <ele>1390.639248</ele>
        <time>2021-08-14T15:11:35.769Z</time>
      </trkpt>
      <trkpt lat="42.80737" lon="0.36349">
        <ele>1391.256922</ele>
        <time>2021-08-14T15:11:46.644Z</time>
      </trkpt>
      <trkpt lat="42.80752" lon="0.36343">
        <ele>1391.71481</ele>
        <time>2021-08-14T15:11:51.685Z</time>
      </trkpt>
      <trkpt lat="42.80816" lon="0.36303">
        <ele>1391.277764</ele>
        <time>2021-08-14T15:12:19.019Z</time>
      </trkpt>
      <trkpt lat="42.8087" lon="0.36281">
        <ele>1389.807455</ele>
        <time>2021-08-14T15:12:33.762Z</time>
      </trkpt>
      <trkpt lat="42.8089" lon="0.36268">
        <ele>1389.228438</ele>
        <time>2021-08-14T15:12:37.278Z</time>
      </trkpt>
      <trkpt lat="42.8091" lon="0.36248">
        <ele>1388.600997</ele>
        <time>2021-08-14T15:12:40.820Z</time>
      </trkpt>
      <trkpt lat="42.8094" lon="0.36203">
        <ele>1386.040838</ele>
        <time>2021-08-14T15:12:47.146Z</time>
      </trkpt>
      <trkpt lat="42.81091" lon="0.36041">
        <ele>1361.544739</ele>
        <time>2021-08-14T15:13:13.660Z</time>
      </trkpt>
      <trkpt lat="42.81111" lon="0.36011">
        <ele>1357.784492</ele>
        <time>2021-08-14T15:13:17.689Z</time>
      </trkpt>
      <trkpt lat="42.81191" lon="0.35848">
        <ele>1340.645002</ele>
        <time>2021-08-14T15:13:37.609Z</time>
      </trkpt>
      <trkpt lat="42.81234" lon="0.35731">
        <ele>1333.522407</ele>
        <time>2021-08-14T15:13:52.060Z</time>
      </trkpt>
      <trkpt lat="42.81244" lon="0.35714">
        <ele>1332.356833</ele>
        <time>2021-08-14T15:13:54.569Z</time>
      </trkpt>
      <trkpt lat="42.81273" lon="0.35708">
        <ele>1330.182077</ele>
        <time>2021-08-14T15:13:59.302Z</time>
      </trkpt>
      <trkpt lat="42.8135" lon="0.35721">
        <ele>1324.102508</ele>
        <time>2021-08-14T15:14:11.718Z</time>
      </trkpt>
      <trkpt lat="42.81392" lon="0.3574">
        <ele>1320.593268</ele>
        <time>2021-08-14T15:14:18.310Z</time>
      </trkpt>
      <trkpt lat="42.81409" lon="0.35735">
        <ele>1319.200957</ele>
        <time>2021-08-14T15:14:20.843Z</time>
      </trkpt>
      <trkpt lat="42.81426" lon="0.35664">
        <ele>1314.796399</ele>
        <time>2021-08-14T15:14:28.564Z</time>
      </trkpt>
      <trkpt lat="42.81429" lon="0.35599">
        <ele>1309.118675</ele>
        <time>2021-08-14T15:14:35.210Z</time>
      </trkpt>
      <trkpt lat="42.81438" lon="0.35563">
        <ele>1305.807109</ele>
        <time>2021-08-14T15:14:39.044Z</time>
      </trkpt>
      <trkpt lat="42.81452" lon="0.35536">
        <ele>1302.815805</ele>
        <time>2021-08-14T15:14:42.402Z</time>
      </trkpt>
      <trkpt lat="42.81469" lon="0.35517">
        <ele>1300.088153</ele>
        <time>2021-08-14T15:14:45.448Z</time>
      </trkpt>
      <trkpt lat="42.81497" lon="0.35494">
        <ele>1296.150084</ele>
        <time>2021-08-14T15:14:49.939Z</time>
      </trkpt>
      <trkpt lat="42.81508" lon="0.35485">
        <ele>1294.591477</ele>
        <time>2021-08-14T15:14:51.770Z</time>
      </trkpt>
      <trkpt lat="42.81521" lon="0.35472">
        <ele>1292.566968</ele>
        <time>2021-08-14T15:14:54.173Z</time>
      </trkpt>
      <trkpt lat="42.81528" lon="0.35465">
        <ele>1291.863808</ele>
        <time>2021-08-14T15:14:55.314Z</time>
      </trkpt>
      <trkpt lat="42.81573" lon="0.35388">
        <ele>1285.937425</ele>
        <time>2021-08-14T15:15:05.649Z</time>
      </trkpt>
      <trkpt lat="42.81611" lon="0.35311">
        <ele>1280.343581</ele>
        <time>2021-08-14T15:15:16.032Z</time>
      </trkpt>
      <trkpt lat="42.81633" lon="0.35286">
        <ele>1277.907376</ele>
        <time>2021-08-14T15:15:20.407Z</time>
      </trkpt>
      <trkpt lat="42.81652" lon="0.35273">
        <ele>1276.239028</ele>
        <time>2021-08-14T15:15:23.502Z</time>
      </trkpt>
      <trkpt lat="42.81689" lon="0.35268">
        <ele>1273.17154</ele>
        <time>2021-08-14T15:15:29.202Z</time>
      </trkpt>
      <trkpt lat="42.81708" lon="0.35276">
        <ele>1271.621789</ele>
        <time>2021-08-14T15:15:32.091Z</time>
      </trkpt>
      <trkpt lat="42.81737" lon="0.35301">
        <ele>1268.8257</ele>
        <time>2021-08-14T15:15:37.176Z</time>
      </trkpt>
      <trkpt lat="42.81743" lon="0.35296">
        <ele>1268.231907</ele>
        <time>2021-08-14T15:15:38.233Z</time>
      </trkpt>
      <trkpt lat="42.81741" lon="0.35283">
        <ele>1267.433776</ele>
        <time>2021-08-14T15:15:39.639Z</time>
      </trkpt>
      <trkpt lat="42.81709" lon="0.35257">
        <ele>1264.374767</ele>
        <time>2021-08-14T15:15:45.030Z</time>
      </trkpt>
      <trkpt lat="42.81659" lon="0.35237">
        <ele>1260.251997</ele>
        <time>2021-08-14T15:15:52.439Z</time>
      </trkpt>
      <trkpt lat="42.81622" lon="0.35244">
        <ele>1257.282359</ele>
        <time>2021-08-14T15:15:57.841Z</time>
      </trkpt>
      <trkpt lat="42.81578" lon="0.35272">
        <ele>1253.414234</ele>
        <time>2021-08-14T15:16:04.951Z</time>
      </trkpt>
      <trkpt lat="42.81413" lon="0.35424">
        <ele>1239.294748</ele>
        <time>2021-08-14T15:16:35.634Z</time>
      </trkpt>
      <trkpt lat="42.81347" lon="0.35472">
        <ele>1231.027092</ele>
        <time>2021-08-14T15:16:46.593Z</time>
      </trkpt>
      <trkpt lat="42.81323" lon="0.3548">
        <ele>1227.327569</ele>
        <time>2021-08-14T15:16:49.996Z</time>
      </trkpt>
      <trkpt lat="42.81303" lon="0.3547">
        <ele>1224.103598</ele>
        <time>2021-08-14T15:16:52.944Z</time>
      </trkpt>
      <trkpt lat="42.81273" lon="0.35436">
        <ele>1218.069775</ele>
        <time>2021-08-14T15:16:58.247Z</time>
      </trkpt>
      <trkpt lat="42.81224" lon="0.35385">
        <ele>1208.551864</ele>
        <time>2021-08-14T15:17:06.398Z</time>
      </trkpt>
      <trkpt lat="42.81186" lon="0.35342">
        <ele>1198.628538</ele>
        <time>2021-08-14T15:17:12.944Z</time>
      </trkpt>
      <trkpt lat="42.81169" lon="0.3533">
        <ele>1194.810626</ele>
        <time>2021-08-14T15:17:15.474Z</time>
      </trkpt>
      <trkpt lat="42.81154" lon="0.3532">
        <ele>1191.526155</ele>
        <time>2021-08-14T15:17:17.556Z</time>
      </trkpt>
      <trkpt lat="42.811" lon="0.35261">
        <ele>1177.502058</ele>
        <time>2021-08-14T15:17:26.473Z</time>
      </trkpt>
      <trkpt lat="42.81093" lon="0.35258">
        <ele>1176.173587</ele>
        <time>2021-08-14T15:17:27.330Z</time>
      </trkpt>
      <trkpt lat="42.81092" lon="0.3525">
        <ele>1174.993163</ele>
        <time>2021-08-14T15:17:28.358Z</time>
      </trkpt>
      <trkpt lat="42.81077" lon="0.35202">
        <ele>1168.377689</ele>
        <time>2021-08-14T15:17:35.105Z</time>
      </trkpt>
      <trkpt lat="42.81076" lon="0.35199">
        <ele>1167.960519</ele>
        <time>2021-08-14T15:17:35.553Z</time>
      </trkpt>
      <trkpt lat="42.81065" lon="0.35194">
        <ele>1165.974357</ele>
        <time>2021-08-14T15:17:37.181Z</time>
      </trkpt>
      <trkpt lat="42.8106" lon="0.35187">
        <ele>1164.894902</ele>
        <time>2021-08-14T15:17:38.040Z</time>
      </trkpt>
      <trkpt lat="42.81079" lon="0.35176">
        <ele>1161.57148</ele>
        <time>2021-08-14T15:17:40.688Z</time>
      </trkpt>
      <trkpt lat="42.81107" lon="0.35148">
        <ele>1155.946369</ele>
        <time>2021-08-14T15:17:45.227Z</time>
      </trkpt>
      <trkpt lat="42.8111" lon="0.35146">
        <ele>1155.415427</ele>
        <time>2021-08-14T15:17:45.730Z</time>
      </trkpt>
      <trkpt lat="42.8111" lon="0.3514">
        <ele>1154.749186</ele>
        <time>2021-08-14T15:17:46.494Z</time>
      </trkpt>
      <trkpt lat="42.81109" lon="0.35135">
        <ele>1154.059565</ele>
        <time>2021-08-14T15:17:47.274Z</time>
      </trkpt>
      <trkpt lat="42.81107" lon="0.3513">
        <ele>1153.416851</ele>
        <time>2021-08-14T15:17:47.991Z</time>
      </trkpt>
      <trkpt lat="42.81105" lon="0.35122">
        <ele>1152.315384</ele>
        <time>2021-08-14T15:17:49.532Z</time>
      </trkpt>
      <trkpt lat="42.8108" lon="0.35064">
        <ele>1144.33572</ele>
        <time>2021-08-14T15:18:00.992Z</time>
      </trkpt>
      <trkpt lat="42.81051" lon="0.34963">
        <ele>1129.938408</ele>
        <time>2021-08-14T15:18:19.205Z</time>
      </trkpt>
      <trkpt lat="42.81083" lon="0.34866">
        <ele>1115.746802</ele>
        <time>2021-08-14T15:18:36.715Z</time>
      </trkpt>
      <trkpt lat="42.81109" lon="0.34838">
        <ele>1110.543066</ele>
        <time>2021-08-14T15:18:44.117Z</time>
      </trkpt>
      <trkpt lat="42.81113" lon="0.34783">
        <ele>1106.045373</ele>
        <time>2021-08-14T15:18:53.780Z</time>
      </trkpt>
      <trkpt lat="42.81109" lon="0.34758">
        <ele>1104.043028</ele>
        <time>2021-08-14T15:18:58.388Z</time>
      </trkpt>
      <trkpt lat="42.81111" lon="0.34749">
        <ele>1103.273024</ele>
        <time>2021-08-14T15:18:59.951Z</time>
      </trkpt>
      <trkpt lat="42.81109" lon="0.3474">
        <ele>1102.484508</ele>
        <time>2021-08-14T15:19:00.933Z</time>
      </trkpt>
      <trkpt lat="42.81115" lon="0.34722">
        <ele>1100.916308</ele>
        <time>2021-08-14T15:19:03.080Z</time>
      </trkpt>
      <trkpt lat="42.81119" lon="0.34721">
        <ele>1100.43548</ele>
        <time>2021-08-14T15:19:03.677Z</time>
      </trkpt>
      <trkpt lat="42.81123" lon="0.34721">
        <ele>1100.040779</ele>
        <time>2021-08-14T15:19:04.235Z</time>
      </trkpt>
      <trkpt lat="42.81128" lon="0.34724">
        <ele>1099.451856</ele>
        <time>2021-08-14T15:19:04.919Z</time>
      </trkpt>
      <trkpt lat="42.81174" lon="0.34768">
        <ele>1093.268627</ele>
        <time>2021-08-14T15:19:12.898Z</time>
      </trkpt>
      <trkpt lat="42.81212" lon="0.34789">
        <ele>1089.983519</ele>
        <time>2021-08-14T15:19:18.773Z</time>
      </trkpt>
      <trkpt lat="42.81247" lon="0.34797">
        <ele>1087.671278</ele>
        <time>2021-08-14T15:19:23.863Z</time>
      </trkpt>
      <trkpt lat="42.81263" lon="0.34797">
        <ele>1086.667149</ele>
        <time>2021-08-14T15:19:26.739Z</time>
      </trkpt>
      <trkpt lat="42.81328" lon="0.34796">
        <ele>1082.394728</ele>
        <time>2021-08-14T15:19:36.487Z</time>
      </trkpt>
      <trkpt lat="42.81386" lon="0.34797">
        <ele>1077.957693</ele>
        <time>2021-08-14T15:19:44.511Z</time>
      </trkpt>
      <trkpt lat="42.81491" lon="0.3476">
        <ele>1067.630476</ele>
        <time>2021-08-14T15:19:59.346Z</time>
      </trkpt>
      <trkpt lat="42.81512" lon="0.34744">
        <ele>1065.391762</ele>
        <time>2021-08-14T15:20:02.583Z</time>
      </trkpt>
      <trkpt lat="42.81535" lon="0.34712">
        <ele>1062.205724</ele>
        <time>2021-08-14T15:20:07.110Z</time>
      </trkpt>
      <trkpt lat="42.81561" lon="0.34691">
        <ele>1059.111158</ele>
        <time>2021-08-14T15:20:11.217Z</time>
      </trkpt>
      <trkpt lat="42.8167" lon="0.34645">
        <ele>1047.334117</ele>
        <time>2021-08-14T15:20:26.909Z</time>
      </trkpt>
      <trkpt lat="42.81718" lon="0.3461">
        <ele>1041.4924</ele>
        <time>2021-08-14T15:20:33.990Z</time>
      </trkpt>
      <trkpt lat="42.8175" lon="0.34604">
        <ele>1037.833385</ele>
        <time>2021-08-14T15:20:38.272Z</time>
      </trkpt>
      <trkpt lat="42.81792" lon="0.34529">
        <ele>1030.060043</ele>
        <time>2021-08-14T15:20:47.400Z</time>
      </trkpt>
      <trkpt lat="42.81794" lon="0.34519">
        <ele>1029.115323</ele>
        <time>2021-08-14T15:20:48.465Z</time>
      </trkpt>
      <trkpt lat="42.81806" lon="0.34479">
        <ele>1025.5389</ele>
        <time>2021-08-14T15:20:52.895Z</time>
      </trkpt>
      <trkpt lat="42.81811" lon="0.34478">
        <ele>1025.039224</ele>
        <time>2021-08-14T15:20:53.458Z</time>
      </trkpt>
      <trkpt lat="42.81816" lon="0.34473">
        <ele>1024.267021</ele>
        <time>2021-08-14T15:20:54.408Z</time>
      </trkpt>
      <trkpt lat="42.81825" lon="0.34461">
        <ele>1024.006097</ele>
        <time>2021-08-14T15:20:56.425Z</time>
      </trkpt>
      <trkpt lat="42.81848" lon="0.3443">
        <ele>1023.580025</ele>
        <time>2021-08-14T15:21:01.038Z</time>
      </trkpt>
      <trkpt lat="42.81862" lon="0.34413">
        <ele>1023.326755</ele>
        <time>2021-08-14T15:21:03.803Z</time>
      </trkpt>
      <trkpt lat="42.81869" lon="0.34408">
        <ele>1023.226476</ele>
        <time>2021-08-14T15:21:04.825Z</time>
      </trkpt>
      <trkpt lat="42.81872" lon="0.34408">
        <ele>1023.176141</ele>
        <time>2021-08-14T15:21:06.702Z</time>
      </trkpt>
      <trkpt lat="42.81876" lon="0.34409">
        <ele>1023.117546</ele>
        <time>2021-08-14T15:21:07.480Z</time>
      </trkpt>
      <trkpt lat="42.819" lon="0.34416">
        <ele>1022.794044</ele>
        <time>2021-08-14T15:21:11.199Z</time>
      </trkpt>
      <trkpt lat="42.81916" lon="0.34416">
        <ele>1022.579043</ele>
        <time>2021-08-14T15:21:15.445Z</time>
      </trkpt>
      <trkpt lat="42.81929" lon="0.34415">
        <ele>1022.404235</ele>
        <time>2021-08-14T15:21:20.289Z</time>
      </trkpt>
      <trkpt lat="42.81941" lon="0.34407">
        <ele>1022.228212</ele>
        <time>2021-08-14T15:21:24.678Z</time>
      </trkpt>
      <trkpt lat="42.81946" lon="0.344">
        <ele>1022.13262</ele>
        <time>2021-08-14T15:21:28.203Z</time>
      </trkpt>
      <trkpt lat="42.81947" lon="0.34398">
        <ele>1022.10865</ele>
        <time>2021-08-14T15:21:28.743Z</time>
      </trkpt>
      <trkpt lat="42.81948" lon="0.34395">
        <ele>1022.076818</ele>
        <time>2021-08-14T15:21:29.542Z</time>
      </trkpt>
      <trkpt lat="42.81961" lon="0.34388">
        <ele>1021.891512</ele>
        <time>2021-08-14T15:21:37.401Z</time>
      </trkpt>
      <trkpt lat="42.82001" lon="0.34382">
        <ele>1023.757769</ele>
        <time>2021-08-14T15:21:58.080Z</time>
      </trkpt>
      <trkpt lat="42.82071" lon="0.34381">
        <ele>1028.356712</ele>
        <time>2021-08-14T15:22:37.590Z</time>
      </trkpt>
      <trkpt lat="42.82119" lon="0.3438">
        <ele>1031.54992</ele>
        <time>2021-08-14T15:23:03.261Z</time>
      </trkpt>
      <trkpt lat="42.82278" lon="0.34393">
        <ele>1037.268978</ele>
        <time>2021-08-14T15:24:04.736Z</time>
      </trkpt>
      <trkpt lat="42.82371" lon="0.34366">
        <ele>1039.800027</ele>
        <time>2021-08-14T15:24:25.953Z</time>
      </trkpt>
      <trkpt lat="42.8239" lon="0.34376">
        <ele>1040.312102</ele>
        <time>2021-08-14T15:24:31.391Z</time>
      </trkpt>
      <trkpt lat="42.82404" lon="0.34376">
        <ele>1040.66502</ele>
        <time>2021-08-14T15:24:35.008Z</time>
      </trkpt>
      <trkpt lat="42.82429" lon="0.34354">
        <ele>1041.42313</ele>
        <time>2021-08-14T15:24:44.094Z</time>
      </trkpt>
      <trkpt lat="42.82446" lon="0.34348">
        <ele>1041.851984</ele>
        <time>2021-08-14T15:24:49.741Z</time>
      </trkpt>
      <trkpt lat="42.82504" lon="0.34341">
        <ele>1043.463873</ele>
        <time>2021-08-14T15:25:14.023Z</time>
      </trkpt>
      <trkpt lat="42.82531" lon="0.34344">
        <ele>1045.574335</ele>
        <time>2021-08-14T15:25:27.999Z</time>
      </trkpt>
      <trkpt lat="42.8256" lon="0.34356">
        <ele>1047.84665</ele>
        <time>2021-08-14T15:25:44.178Z</time>
      </trkpt>
      <trkpt lat="42.82594" lon="0.3438">
        <ele>1050.867537</ele>
        <time>2021-08-14T15:26:07.866Z</time>
      </trkpt>
      <trkpt lat="42.82614" lon="0.34412">
        <ele>1053.245959</ele>
        <time>2021-08-14T15:26:26.615Z</time>
      </trkpt>
      <trkpt lat="42.82648" lon="0.34442">
        <ele>1056.336217</ele>
        <time>2021-08-14T15:26:49.672Z</time>
      </trkpt>
      <trkpt lat="42.82707" lon="0.34478">
        <ele>1059.113518</ele>
        <time>2021-08-14T15:27:23.158Z</time>
      </trkpt>
      <trkpt lat="42.82844" lon="0.34532">
        <ele>1063.920984</ele>
        <time>2021-08-14T15:28:06.855Z</time>
      </trkpt>
      <trkpt lat="42.82956" lon="0.34587">
        <ele>1065.769489</ele>
        <time>2021-08-14T15:28:36.769Z</time>
      </trkpt>
      <trkpt lat="42.82972" lon="0.346">
        <ele>1066.054006</ele>
        <time>2021-08-14T15:28:43.115Z</time>
      </trkpt>
      <trkpt lat="42.83003" lon="0.34644">
        <ele>1067.176733</ele>
        <time>2021-08-14T15:28:59.961Z</time>
      </trkpt>
      <trkpt lat="42.83023" lon="0.3466">
        <ele>1068.003479</ele>
        <time>2021-08-14T15:29:09.174Z</time>
      </trkpt>
      <trkpt lat="42.83093" lon="0.34756">
        <ele>1071.564822</ele>
        <time>2021-08-14T15:29:50.650Z</time>
      </trkpt>
      <trkpt lat="42.83109" lon="0.34766">
        <ele>1072.203555</ele>
        <time>2021-08-14T15:29:57.378Z</time>
      </trkpt>
      <trkpt lat="42.83148" lon="0.3482">
        <ele>1071.60605</ele>
        <time>2021-08-14T15:30:15.856Z</time>
      </trkpt>
      <trkpt lat="42.83232" lon="0.34901">
        <ele>1067.956333</ele>
        <time>2021-08-14T15:30:33.751Z</time>
      </trkpt>
      <trkpt lat="42.83285" lon="0.34972">
        <ele>1061.034142</ele>
        <time>2021-08-14T15:30:44.415Z</time>
      </trkpt>
      <trkpt lat="42.83372" lon="0.35142">
        <ele>1035.834274</ele>
        <time>2021-08-14T15:31:04.793Z</time>
      </trkpt>
      <trkpt lat="42.83438" lon="0.35191">
        <ele>1016.753363</ele>
        <time>2021-08-14T15:31:14.775Z</time>
      </trkpt>
      <trkpt lat="42.83484" lon="0.3528">
        <ele>996.601771</ele>
        <time>2021-08-14T15:31:25.372Z</time>
      </trkpt>
      <trkpt lat="42.8351" lon="0.35349">
        <ele>984.214782</ele>
        <time>2021-08-14T15:31:33.004Z</time>
      </trkpt>
      <trkpt lat="42.83525" lon="0.35355">
        <ele>981.198938</ele>
        <time>2021-08-14T15:31:35.016Z</time>
      </trkpt>
      <trkpt lat="42.83551" lon="0.35326">
        <ele>974.491012</ele>
        <time>2021-08-14T15:31:39.484Z</time>
      </trkpt>
      <trkpt lat="42.83563" lon="0.35326">
        <ele>972.093005</ele>
        <time>2021-08-14T15:31:41.099Z</time>
      </trkpt>
      <trkpt lat="42.83622" lon="0.35349">
        <ele>959.871989</ele>
        <time>2021-08-14T15:31:49.397Z</time>
      </trkpt>
      <trkpt lat="42.83713" lon="0.35394">
        <ele>951.19236</ele>
        <time>2021-08-14T15:32:03.478Z</time>
      </trkpt>
      <trkpt lat="42.83747" lon="0.35402">
        <ele>949.051972</ele>
        <time>2021-08-14T15:32:09.092Z</time>
      </trkpt>
      <trkpt lat="42.83747" lon="0.35406">
        <ele>948.831975</ele>
        <time>2021-08-14T15:32:10.089Z</time>
      </trkpt>
      <trkpt lat="42.83778" lon="0.35426">
        <ele>946.679364</ele>
        <time>2021-08-14T15:32:18.595Z</time>
      </trkpt>
      <trkpt lat="42.83794" lon="0.35433">
        <ele>945.649438</ele>
        <time>2021-08-14T15:32:22.206Z</time>
      </trkpt>
      <trkpt lat="42.83799" lon="0.3543">
        <ele>945.281101</ele>
        <time>2021-08-14T15:32:26.281Z</time>
      </trkpt>
      <trkpt lat="42.83814" lon="0.35434">
        <ele>944.294599</ele>
        <time>2021-08-14T15:32:36.916Z</time>
      </trkpt>
      <trkpt lat="42.83799" lon="0.3543">
        <ele>943.28551</ele>
        <time>2021-08-14T15:32:47.568Z</time>
      </trkpt>
      <trkpt lat="42.83794" lon="0.35433">
        <ele>942.900687</ele>
        <time>2021-08-14T15:32:51.646Z</time>
      </trkpt>
      <trkpt lat="42.83778" lon="0.35426">
        <ele>941.824668</ele>
        <time>2021-08-14T15:32:55.213Z</time>
      </trkpt>
      <trkpt lat="42.83747" lon="0.35406">
        <ele>939.575719</ele>
        <time>2021-08-14T15:33:02.062Z</time>
      </trkpt>
      <trkpt lat="42.83747" lon="0.35402">
        <ele>939.345876</ele>
        <time>2021-08-14T15:33:02.837Z</time>
      </trkpt>
      <trkpt lat="42.83751" lon="0.35402">
        <ele>939.060741</ele>
        <time>2021-08-14T15:33:03.455Z</time>
      </trkpt>
      <trkpt lat="42.83789" lon="0.35402">
        <ele>936.596758</ele>
        <time>2021-08-14T15:33:09.021Z</time>
      </trkpt>
      <trkpt lat="42.83794" lon="0.35398">
        <ele>936.211936</ele>
        <time>2021-08-14T15:33:09.856Z</time>
      </trkpt>
      <trkpt lat="42.83804" lon="0.35387">
        <ele>935.315967</ele>
        <time>2021-08-14T15:33:11.800Z</time>
      </trkpt>
      <trkpt lat="42.83816" lon="0.35376">
        <ele>934.422881</ele>
        <time>2021-08-14T15:33:13.897Z</time>
      </trkpt>
      <trkpt lat="42.83832" lon="0.35382">
        <ele>933.294576</ele>
        <time>2021-08-14T15:33:16.405Z</time>
      </trkpt>
      <trkpt lat="42.83835" lon="0.35383">
        <ele>933.082855</ele>
        <time>2021-08-14T15:33:16.843Z</time>
      </trkpt>
      <trkpt lat="42.83868" lon="0.35387">
        <ele>930.622175</ele>
        <time>2021-08-14T15:33:21.709Z</time>
      </trkpt>
      <trkpt lat="42.83874" lon="0.35385">
        <ele>930.230754</ele>
        <time>2021-08-14T15:33:22.441Z</time>
      </trkpt>
      <trkpt lat="42.83879" lon="0.35387">
        <ele>929.789967</ele>
        <time>2021-08-14T15:33:23.382Z</time>
      </trkpt>
      <trkpt lat="42.83893" lon="0.3539">
        <ele>928.754112</ele>
        <time>2021-08-14T15:33:25.293Z</time>
      </trkpt>
      <trkpt lat="42.83902" lon="0.35392">
        <ele>928.114983</ele>
        <time>2021-08-14T15:33:26.478Z</time>
      </trkpt>
      <trkpt lat="42.83921" lon="0.35396">
        <ele>926.662828</ele>
        <time>2021-08-14T15:33:29.246Z</time>
      </trkpt>
      <trkpt lat="42.83962" lon="0.35402">
        <ele>923.584214</ele>
        <time>2021-08-14T15:33:35.059Z</time>
      </trkpt>
      <trkpt lat="42.8405" lon="0.35393">
        <ele>917.360489</ele>
        <time>2021-08-14T15:33:47.997Z</time>
      </trkpt>
      <trkpt lat="42.8415" lon="0.35399">
        <ele>910.774746</ele>
        <time>2021-08-14T15:34:02.693Z</time>
      </trkpt>
      <trkpt lat="42.84313" lon="0.35395">
        <ele>897.009382</ele>
        <time>2021-08-14T15:34:25.570Z</time>
      </trkpt>
      <trkpt lat="42.84421" lon="0.35376">
        <ele>885.640397</ele>
        <time>2021-08-14T15:34:40.185Z</time>
      </trkpt>
      <trkpt lat="42.84496" lon="0.35351">
        <ele>876.166769</ele>
        <time>2021-08-14T15:34:50.408Z</time>
      </trkpt>
      <trkpt lat="42.84548" lon="0.35324">
        <ele>869.420799</ele>
        <time>2021-08-14T15:34:57.742Z</time>
      </trkpt>
      <trkpt lat="42.84551" lon="0.35323">
        <ele>869.061287</ele>
        <time>2021-08-14T15:34:58.180Z</time>
      </trkpt>
      <trkpt lat="42.84635" lon="0.35285">
        <ele>859.865045</ele>
        <time>2021-08-14T15:35:09.885Z</time>
      </trkpt>
      <trkpt lat="42.84698" lon="0.35232">
        <ele>852.049833</ele>
        <time>2021-08-14T15:35:20.093Z</time>
      </trkpt>
      <trkpt lat="42.84712" lon="0.35232">
        <ele>850.55788</ele>
        <time>2021-08-14T15:35:22.434Z</time>
      </trkpt>
      <trkpt lat="42.84719" lon="0.35238">
        <ele>849.766301</ele>
        <time>2021-08-14T15:35:23.751Z</time>
      </trkpt>
      <trkpt lat="42.84731" lon="0.35258">
        <ele>848.042786</ele>
        <time>2021-08-14T15:35:26.152Z</time>
      </trkpt>
      <trkpt lat="42.84735" lon="0.35263">
        <ele>847.547361</ele>
        <time>2021-08-14T15:35:26.992Z</time>
      </trkpt>
      <trkpt lat="42.84737" lon="0.35267">
        <ele>847.260845</ele>
        <time>2021-08-14T15:35:27.992Z</time>
      </trkpt>
      <trkpt lat="42.84762" lon="0.35291">
        <ele>844.342622</ele>
        <time>2021-08-14T15:35:32.239Z</time>
      </trkpt>
      <trkpt lat="42.84803" lon="0.35316">
        <ele>840.182569</ele>
        <time>2021-08-14T15:35:38.434Z</time>
      </trkpt>
      <trkpt lat="42.8481" lon="0.35318">
        <ele>839.579836</ele>
        <time>2021-08-14T15:35:39.469Z</time>
      </trkpt>
      <trkpt lat="42.84813" lon="0.35317">
        <ele>839.230545</ele>
        <time>2021-08-14T15:35:39.940Z</time>
      </trkpt>
      <trkpt lat="42.84836" lon="0.35274">
        <ele>835.642051</ele>
        <time>2021-08-14T15:35:45.286Z</time>
      </trkpt>
      <trkpt lat="42.84839" lon="0.3527">
        <ele>835.217682</ele>
        <time>2021-08-14T15:35:45.856Z</time>
      </trkpt>
      <trkpt lat="42.84846" lon="0.35266">
        <ele>834.492573</ele>
        <time>2021-08-14T15:35:46.932Z</time>
      </trkpt>
      <trkpt lat="42.84885" lon="0.35248">
        <ele>830.639966</ele>
        <time>2021-08-14T15:35:52.687Z</time>
      </trkpt>
      <trkpt lat="42.84888" lon="0.35246">
        <ele>830.364285</ele>
        <time>2021-08-14T15:35:53.066Z</time>
      </trkpt>
      <trkpt lat="42.84986" lon="0.35189">
        <ele>820.4131</ele>
        <time>2021-08-14T15:36:07.401Z</time>
      </trkpt>
      <trkpt lat="42.85011" lon="0.35174">
        <ele>817.826508</ele>
        <time>2021-08-14T15:36:11.399Z</time>
      </trkpt>
      <trkpt lat="42.85059" lon="0.3515">
        <ele>814.308054</ele>
        <time>2021-08-14T15:36:18.673Z</time>
      </trkpt>
      <trkpt lat="42.85135" lon="0.35124">
        <ele>809.259347</ele>
        <time>2021-08-14T15:36:30.193Z</time>
      </trkpt>
      <trkpt lat="42.85163" lon="0.3512">
        <ele>807.443742</ele>
        <time>2021-08-14T15:36:34.344Z</time>
      </trkpt>
      <trkpt lat="42.85257" lon="0.3511">
        <ele>801.623053</ele>
        <time>2021-08-14T15:36:48.129Z</time>
      </trkpt>
      <trkpt lat="42.85295" lon="0.35118">
        <ele>799.229655</ele>
        <time>2021-08-14T15:36:53.761Z</time>
      </trkpt>
      <trkpt lat="42.85338" lon="0.35108">
        <ele>796.528884</ele>
        <time>2021-08-14T15:37:00.163Z</time>
      </trkpt>
      <trkpt lat="42.85365" lon="0.35099">
        <ele>794.862632</ele>
        <time>2021-08-14T15:37:03.999Z</time>
      </trkpt>
      <trkpt lat="42.85383" lon="0.35093">
        <ele>793.826166</ele>
        <time>2021-08-14T15:37:06.785Z</time>
      </trkpt>
      <trkpt lat="42.85401" lon="0.35092">
        <ele>792.894471</ele>
        <time>2021-08-14T15:37:09.419Z</time>
      </trkpt>
      <trkpt lat="42.85412" lon="0.3508">
        <ele>792.216603</ele>
        <time>2021-08-14T15:37:11.460Z</time>
      </trkpt>
      <trkpt lat="42.85422" lon="0.34962">
        <ele>787.778822</ele>
        <time>2021-08-14T15:37:24.787Z</time>
      </trkpt>
      <trkpt lat="42.85426" lon="0.34956">
        <ele>787.498419</ele>
        <time>2021-08-14T15:37:25.533Z</time>
      </trkpt>
      <trkpt lat="42.8543" lon="0.34955">
        <ele>787.288469</ele>
        <time>2021-08-14T15:37:26.186Z</time>
      </trkpt>
      <trkpt lat="42.85436" lon="0.34956">
        <ele>786.944846</ele>
        <time>2021-08-14T15:37:27.277Z</time>
      </trkpt>
      <trkpt lat="42.85461" lon="0.34966">
        <ele>785.661662</ele>
        <time>2021-08-14T15:37:31.128Z</time>
      </trkpt>
      <trkpt lat="42.85526" lon="0.34964">
        <ele>783.844375</ele>
        <time>2021-08-14T15:37:42.093Z</time>
      </trkpt>
      <trkpt lat="42.85547" lon="0.34965">
        <ele>783.309553</ele>
        <time>2021-08-14T15:37:45.437Z</time>
      </trkpt>
      <trkpt lat="42.85581" lon="0.34967">
        <ele>782.469308</ele>
        <time>2021-08-14T15:37:51.125Z</time>
      </trkpt>
      <trkpt lat="42.85586" lon="0.34966">
        <ele>782.34522</ele>
        <time>2021-08-14T15:37:52.030Z</time>
      </trkpt>
      <trkpt lat="42.85637" lon="0.34966">
        <ele>781.065834</ele>
        <time>2021-08-14T15:38:02.383Z</time>
      </trkpt>
      <trkpt lat="42.8565" lon="0.34965">
        <ele>780.756815</ele>
        <time>2021-08-14T15:38:04.519Z</time>
      </trkpt>
      <trkpt lat="42.85679" lon="0.34964">
        <ele>780.168892</ele>
        <time>2021-08-14T15:38:09.986Z</time>
      </trkpt>
      <trkpt lat="42.85685" lon="0.34964">
        <ele>780.052472</ele>
        <time>2021-08-14T15:38:10.918Z</time>
      </trkpt>
      <trkpt lat="42.85708" lon="0.34963">
        <ele>779.586894</ele>
        <time>2021-08-14T15:38:15.163Z</time>
      </trkpt>
      <trkpt lat="42.85774" lon="0.34971">
        <ele>778.253457</ele>
        <time>2021-08-14T15:38:26.684Z</time>
      </trkpt>
      <trkpt lat="42.85785" lon="0.34969">
        <ele>778.038612</ele>
        <time>2021-08-14T15:38:28.772Z</time>
      </trkpt>
      <trkpt lat="42.85787" lon="0.34969">
        <ele>778.002031</ele>
        <time>2021-08-14T15:38:29.023Z</time>
      </trkpt>
      <trkpt lat="42.85826" lon="0.34954">
        <ele>777.183545</ele>
        <time>2021-08-14T15:38:35.867Z</time>
      </trkpt>
      <trkpt lat="42.85852" lon="0.34946">
        <ele>776.628717</ele>
        <time>2021-08-14T15:38:40.875Z</time>
      </trkpt>
      <trkpt lat="42.85896" lon="0.34943">
        <ele>775.722557</ele>
        <time>2021-08-14T15:38:48.127Z</time>
      </trkpt>
      <trkpt lat="42.859" lon="0.34944">
        <ele>775.624535</ele>
        <time>2021-08-14T15:38:48.837Z</time>
      </trkpt>
      <trkpt lat="42.85912" lon="0.34945">
        <ele>775.384787</ele>
        <time>2021-08-14T15:38:50.947Z</time>
      </trkpt>
      <trkpt lat="42.85923" lon="0.34949">
        <ele>775.153184</ele>
        <time>2021-08-14T15:38:53.127Z</time>
      </trkpt>
      <trkpt lat="42.85934" lon="0.34953">
        <ele>774.904459</ele>
        <time>2021-08-14T15:38:54.949Z</time>
      </trkpt>
      <trkpt lat="42.8598" lon="0.34953">
        <ele>773.967946</ele>
        <time>2021-08-14T15:39:02.877Z</time>
      </trkpt>
      <trkpt lat="42.86028" lon="0.34932">
        <ele>773.50108</ele>
        <time>2021-08-14T15:39:12.600Z</time>
      </trkpt>
      <trkpt lat="42.86061" lon="0.34931">
        <ele>773.556358</ele>
        <time>2021-08-14T15:39:19.287Z</time>
      </trkpt>
      <trkpt lat="42.86168" lon="0.34962">
        <ele>773.735292</ele>
        <time>2021-08-14T15:39:46.980Z</time>
      </trkpt>
      <trkpt lat="42.86221" lon="0.35004">
        <ele>773.551747</ele>
        <time>2021-08-14T15:40:03.687Z</time>
      </trkpt>
      <trkpt lat="42.86268" lon="0.35006">
        <ele>773.358913</ele>
        <time>2021-08-14T15:40:13.600Z</time>
      </trkpt>
      <trkpt lat="42.86304" lon="0.3502">
        <ele>773.209693</ele>
        <time>2021-08-14T15:40:21.071Z</time>
      </trkpt>
      <trkpt lat="42.86326" lon="0.35026">
        <ele>773.118261</ele>
        <time>2021-08-14T15:40:26.130Z</time>
      </trkpt>
      <trkpt lat="42.86339" lon="0.35029">
        <ele>773.065572</ele>
        <time>2021-08-14T15:40:28.227Z</time>
      </trkpt>
      <trkpt lat="42.86417" lon="0.35028">
        <ele>770.399682</ele>
        <time>2021-08-14T15:40:41.439Z</time>
      </trkpt>
      <trkpt lat="42.8651" lon="0.35055">
        <ele>766.696948</ele>
        <time>2021-08-14T15:40:56.024Z</time>
      </trkpt>
      <trkpt lat="42.86576" lon="0.35086">
        <ele>762.871458</ele>
        <time>2021-08-14T15:41:06.337Z</time>
      </trkpt>
      <trkpt lat="42.86611" lon="0.35091">
        <ele>760.745977</ele>
        <time>2021-08-14T15:41:11.478Z</time>
      </trkpt>
      <trkpt lat="42.86637" lon="0.35081">
        <ele>759.116476</ele>
        <time>2021-08-14T15:41:15.396Z</time>
      </trkpt>
      <trkpt lat="42.86692" lon="0.35031">
        <ele>755.124497</ele>
        <time>2021-08-14T15:41:24.925Z</time>
      </trkpt>
      <trkpt lat="42.8673" lon="0.35004">
        <ele>752.608402</ele>
        <time>2021-08-14T15:41:31.196Z</time>
      </trkpt>
      <trkpt lat="42.86813" lon="0.34987">
        <ele>747.763605</ele>
        <time>2021-08-14T15:41:43.329Z</time>
      </trkpt>
      <trkpt lat="42.86832" lon="0.34972">
        <ele>746.460071</ele>
        <time>2021-08-14T15:41:46.702Z</time>
      </trkpt>
      <trkpt lat="42.86862" lon="0.34936">
        <ele>744.598628</ele>
        <time>2021-08-14T15:41:52.730Z</time>
      </trkpt>
      <trkpt lat="42.86896" lon="0.34913">
        <ele>743.970987</ele>
        <time>2021-08-14T15:41:58.875Z</time>
      </trkpt>
      <trkpt lat="42.86903" lon="0.3491">
        <ele>743.857243</ele>
        <time>2021-08-14T15:42:00.027Z</time>
      </trkpt>
      <trkpt lat="42.86914" lon="0.34906">
        <ele>743.674345</ele>
        <time>2021-08-14T15:42:02.072Z</time>
      </trkpt>
      <trkpt lat="42.86951" lon="0.349">
        <ele>743.074384</ele>
        <time>2021-08-14T15:42:08.753Z</time>
      </trkpt>
      <trkpt lat="42.86973" lon="0.34903">
        <ele>742.704143</ele>
        <time>2021-08-14T15:42:13.086Z</time>
      </trkpt>
      <trkpt lat="42.86982" lon="0.34908">
        <ele>742.557596</ele>
        <time>2021-08-14T15:42:15.065Z</time>
      </trkpt>
      <trkpt lat="42.87039" lon="0.34936">
        <ele>742.108397</ele>
        <time>2021-08-14T15:42:29.974Z</time>
      </trkpt>
      <trkpt lat="42.87048" lon="0.34942">
        <ele>742.257926</ele>
        <time>2021-08-14T15:42:32.655Z</time>
      </trkpt>
      <trkpt lat="42.8705" lon="0.34944">
        <ele>742.292603</ele>
        <time>2021-08-14T15:42:33.802Z</time>
      </trkpt>
      <trkpt lat="42.87151" lon="0.35049">
        <ele>744.252598</ele>
        <time>2021-08-14T15:43:13.353Z</time>
      </trkpt>
      <trkpt lat="42.87204" lon="0.3508">
        <ele>744.418225</ele>
        <time>2021-08-14T15:43:27.795Z</time>
      </trkpt>
      <trkpt lat="42.87228" lon="0.35083">
        <ele>744.279756</ele>
        <time>2021-08-14T15:43:33.610Z</time>
      </trkpt>
      <trkpt lat="42.87296" lon="0.35042">
        <ele>743.854965</ele>
        <time>2021-08-14T15:43:48.045Z</time>
      </trkpt>
      <trkpt lat="42.87351" lon="0.35029">
        <ele>743.473741</ele>
        <time>2021-08-14T15:43:58.250Z</time>
      </trkpt>
      <trkpt lat="42.87411" lon="0.34999">
        <ele>742.706424</ele>
        <time>2021-08-14T15:44:09.154Z</time>
      </trkpt>
      <trkpt lat="42.87467" lon="0.34987">
        <ele>742.027847</ele>
        <time>2021-08-14T15:44:19.792Z</time>
      </trkpt>
      <trkpt lat="42.87582" lon="0.34999">
        <ele>741.573374</ele>
        <time>2021-08-14T15:44:44.864Z</time>
      </trkpt>
      <trkpt lat="42.87599" lon="0.34999">
        <ele>741.616947</ele>
        <time>2021-08-14T15:44:49.171Z</time>
      </trkpt>
      <trkpt lat="42.87627" lon="0.35001">
        <ele>741.684377</ele>
        <time>2021-08-14T15:44:55.745Z</time>
      </trkpt>
      <trkpt lat="42.87745" lon="0.34962">
        <ele>742.180613</ele>
        <time>2021-08-14T15:45:25.420Z</time>
      </trkpt>
      <trkpt lat="42.87847" lon="0.34943">
        <ele>742.829319</ele>
        <time>2021-08-14T15:45:50.981Z</time>
      </trkpt>
      <trkpt lat="42.8791" lon="0.34917">
        <ele>743.164679</ele>
        <time>2021-08-14T15:46:07.622Z</time>
      </trkpt>
      <trkpt lat="42.88029" lon="0.34935">
        <ele>743.6817</ele>
        <time>2021-08-14T15:46:36.838Z</time>
      </trkpt>
      <trkpt lat="42.88063" lon="0.34934">
        <ele>743.793162</ele>
        <time>2021-08-14T15:46:44.143Z</time>
      </trkpt>
      <trkpt lat="42.88069" lon="0.34927">
        <ele>743.808387</ele>
        <time>2021-08-14T15:46:45.640Z</time>
      </trkpt>
      <trkpt lat="42.88085" lon="0.3494">
        <ele>743.844265</ele>
        <time>2021-08-14T15:46:49.583Z</time>
      </trkpt>
      <trkpt lat="42.88105" lon="0.34951">
        <ele>743.883813</ele>
        <time>2021-08-14T15:46:53.788Z</time>
      </trkpt>
      <trkpt lat="42.88131" lon="0.34964">
        <ele>743.936745</ele>
        <time>2021-08-14T15:46:59.595Z</time>
      </trkpt>
      <trkpt lat="42.88146" lon="0.34968">
        <ele>743.96625</ele>
        <time>2021-08-14T15:47:02.847Z</time>
      </trkpt>
      <trkpt lat="42.88184" lon="0.34966">
        <ele>744.037108</ele>
        <time>2021-08-14T15:47:12.116Z</time>
      </trkpt>
      <trkpt lat="42.88243" lon="0.34964">
        <ele>744.343667</ele>
        <time>2021-08-14T15:47:27.779Z</time>
      </trkpt>
      <trkpt lat="42.88247" lon="0.34963">
        <ele>744.386898</ele>
        <time>2021-08-14T15:47:28.979Z</time>
      </trkpt>
      <trkpt lat="42.88287" lon="0.34975">
        <ele>744.814877</ele>
        <time>2021-08-14T15:47:39.661Z</time>
      </trkpt>
      <trkpt lat="42.88301" lon="0.34983">
        <ele>744.971862</ele>
        <time>2021-08-14T15:47:43.525Z</time>
      </trkpt>
      <trkpt lat="42.88306" lon="0.34989">
        <ele>745.047153</ele>
        <time>2021-08-14T15:47:46.155Z</time>
      </trkpt>
      <trkpt lat="42.8835" lon="0.35025">
        <ele>745.58525</ele>
        <time>2021-08-14T15:48:01.362Z</time>
      </trkpt>
      <trkpt lat="42.88386" lon="0.35045">
        <ele>745.990244</ele>
        <time>2021-08-14T15:48:11.230Z</time>
      </trkpt>
      <trkpt lat="42.88469" lon="0.35064">
        <ele>744.844188</ele>
        <time>2021-08-14T15:48:27.718Z</time>
      </trkpt>
      <trkpt lat="42.88485" lon="0.35076">
        <ele>744.591533</ele>
        <time>2021-08-14T15:48:31.303Z</time>
      </trkpt>
      <trkpt lat="42.88492" lon="0.35079">
        <ele>744.483967</ele>
        <time>2021-08-14T15:48:32.860Z</time>
      </trkpt>
      <trkpt lat="42.88497" lon="0.35076">
        <ele>744.408983</ele>
        <time>2021-08-14T15:48:33.651Z</time>
      </trkpt>
      <trkpt lat="42.88505" lon="0.35069">
        <ele>744.271731</ele>
        <time>2021-08-14T15:48:35.672Z</time>
      </trkpt>
      <trkpt lat="42.88554" lon="0.35052">
        <ele>743.568528</ele>
        <time>2021-08-14T15:48:44.841Z</time>
      </trkpt>
      <trkpt lat="42.88587" lon="0.35042">
        <ele>742.326609</ele>
        <time>2021-08-14T15:48:50.705Z</time>
      </trkpt>
      <trkpt lat="42.88639" lon="0.35012">
        <ele>740.002216</ele>
        <time>2021-08-14T15:49:00.050Z</time>
      </trkpt>
      <trkpt lat="42.88719" lon="0.35005">
        <ele>736.715025</ele>
        <time>2021-08-14T15:49:12.932Z</time>
      </trkpt>
      <trkpt lat="42.88759" lon="0.35006">
        <ele>734.857624</ele>
        <time>2021-08-14T15:49:19.176Z</time>
      </trkpt>
      <trkpt lat="42.88765" lon="0.35007">
        <ele>734.569527</ele>
        <time>2021-08-14T15:49:20.067Z</time>
      </trkpt>
      <trkpt lat="42.88812" lon="0.35015">
        <ele>732.189229</ele>
        <time>2021-08-14T15:49:27.481Z</time>
      </trkpt>
      <trkpt lat="42.88832" lon="0.35015">
        <ele>731.166499</ele>
        <time>2021-08-14T15:49:30.611Z</time>
      </trkpt>
      <trkpt lat="42.88849" lon="0.35021">
        <ele>730.305639</ele>
        <time>2021-08-14T15:49:33.294Z</time>
      </trkpt>
      <trkpt lat="42.88865" lon="0.35027">
        <ele>729.492151</ele>
        <time>2021-08-14T15:49:35.832Z</time>
      </trkpt>
      <trkpt lat="42.88877" lon="0.35033">
        <ele>728.8028</ele>
        <time>2021-08-14T15:49:38.006Z</time>
      </trkpt>
      <trkpt lat="42.88887" lon="0.35041">
        <ele>728.242103</ele>
        <time>2021-08-14T15:49:39.725Z</time>
      </trkpt>
      <trkpt lat="42.88893" lon="0.35046">
        <ele>727.878598</ele>
        <time>2021-08-14T15:49:40.907Z</time>
      </trkpt>
      <trkpt lat="42.8892" lon="0.35068">
        <ele>726.908174</ele>
        <time>2021-08-14T15:49:46.015Z</time>
      </trkpt>
      <trkpt lat="42.88973" lon="0.35107">
        <ele>726.176384</ele>
        <time>2021-08-14T15:49:56.764Z</time>
      </trkpt>
      <trkpt lat="42.88989" lon="0.35122">
        <ele>725.93725</ele>
        <time>2021-08-14T15:50:00.927Z</time>
      </trkpt>
      <trkpt lat="42.89003" lon="0.35142">
        <ele>725.693076</ele>
        <time>2021-08-14T15:50:06.073Z</time>
      </trkpt>
      <trkpt lat="42.89017" lon="0.3517">
        <ele>725.391643</ele>
        <time>2021-08-14T15:50:11.451Z</time>
      </trkpt>
      <trkpt lat="42.89029" lon="0.35192">
        <ele>725.150728</ele>
        <time>2021-08-14T15:50:17.567Z</time>
      </trkpt>
      <trkpt lat="42.89063" lon="0.3525">
        <ele>725.125524</ele>
        <time>2021-08-14T15:50:30.957Z</time>
      </trkpt>
      <trkpt lat="42.89069" lon="0.35263">
        <ele>725.195512</ele>
        <time>2021-08-14T15:50:35.383Z</time>
      </trkpt>
      <trkpt lat="42.8916" lon="0.35279">
        <ele>725.75172</ele>
        <time>2021-08-14T15:50:58.285Z</time>
      </trkpt>
      <trkpt lat="42.89275" lon="0.35316">
        <ele>726.571911</ele>
        <time>2021-08-14T15:51:24.915Z</time>
      </trkpt>
      <trkpt lat="42.89351" lon="0.35355">
        <ele>727.172735</ele>
        <time>2021-08-14T15:51:46.123Z</time>
      </trkpt>
      <trkpt lat="42.89385" lon="0.35379">
        <ele>727.413746</ele>
        <time>2021-08-14T15:51:57.059Z</time>
      </trkpt>
      <trkpt lat="42.894" lon="0.35388">
        <ele>727.486393</ele>
        <time>2021-08-14T15:52:02.062Z</time>
      </trkpt>
      <trkpt lat="42.89485" lon="0.35453">
        <ele>727.935317</ele>
        <time>2021-08-14T15:52:26.941Z</time>
      </trkpt>
      <trkpt lat="42.89495" lon="0.35467">
        <ele>728.001421</ele>
        <time>2021-08-14T15:52:29.885Z</time>
      </trkpt>
      <trkpt lat="42.89513" lon="0.35486">
        <ele>728.10698</ele>
        <time>2021-08-14T15:52:34.742Z</time>
      </trkpt>
      <trkpt lat="42.89516" lon="0.35492">
        <ele>728.131101</ele>
        <time>2021-08-14T15:52:35.702Z</time>
      </trkpt>
      <trkpt lat="42.89517" lon="0.35501">
        <ele>728.160415</ele>
        <time>2021-08-14T15:52:36.926Z</time>
      </trkpt>
      <trkpt lat="42.89518" lon="0.35505">
        <ele>728.118554</ele>
        <time>2021-08-14T15:52:37.586Z</time>
      </trkpt>
      <trkpt lat="42.89522" lon="0.35511">
        <ele>728.004798</ele>
        <time>2021-08-14T15:52:39.053Z</time>
      </trkpt>
      <trkpt lat="42.89531" lon="0.35517">
        <ele>727.832869</ele>
        <time>2021-08-14T15:52:40.828Z</time>
      </trkpt>
      <trkpt lat="42.89535" lon="0.35518">
        <ele>727.754151</ele>
        <time>2021-08-14T15:52:41.549Z</time>
      </trkpt>
      <trkpt lat="42.89539" lon="0.35517">
        <ele>727.683927</ele>
        <time>2021-08-14T15:52:42.226Z</time>
      </trkpt>
      <trkpt lat="42.8954" lon="0.35516">
        <ele>727.663136</ele>
        <time>2021-08-14T15:52:42.406Z</time>
      </trkpt>
      <trkpt lat="42.89547" lon="0.35519">
        <ele>727.5324</ele>
        <time>2021-08-14T15:52:43.706Z</time>
      </trkpt>
      <trkpt lat="42.89567" lon="0.35527">
        <ele>727.147877</ele>
        <time>2021-08-14T15:52:47.712Z</time>
      </trkpt>
      <trkpt lat="42.89582" lon="0.35536">
        <ele>726.846325</ele>
        <time>2021-08-14T15:52:50.517Z</time>
      </trkpt>
      <trkpt lat="42.89623" lon="0.35556">
        <ele>726.06451</ele>
        <time>2021-08-14T15:52:58.183Z</time>
      </trkpt>
      <trkpt lat="42.89709" lon="0.35619">
        <ele>724.335001</ele>
        <time>2021-08-14T15:53:14.798Z</time>
      </trkpt>
      <trkpt lat="42.89821" lon="0.35666">
        <ele>722.449278</ele>
        <time>2021-08-14T15:53:36.283Z</time>
      </trkpt>
      <trkpt lat="42.89841" lon="0.35674">
        <ele>722.114114</ele>
        <time>2021-08-14T15:53:40.218Z</time>
      </trkpt>
      <trkpt lat="42.89965" lon="0.35722">
        <ele>720.887123</ele>
        <time>2021-08-14T15:54:05.159Z</time>
      </trkpt>
      <trkpt lat="42.89985" lon="0.35729">
        <ele>720.697025</ele>
        <time>2021-08-14T15:54:09.336Z</time>
      </trkpt>
      <trkpt lat="42.90061" lon="0.35755">
        <ele>719.884499</ele>
        <time>2021-08-14T15:54:24.967Z</time>
      </trkpt>
      <trkpt lat="42.90161" lon="0.35789">
        <ele>718.675735</ele>
        <time>2021-08-14T15:54:44.787Z</time>
      </trkpt>
      <trkpt lat="42.90242" lon="0.35817">
        <ele>717.190671</ele>
        <time>2021-08-14T15:54:59.618Z</time>
      </trkpt>
      <trkpt lat="42.90254" lon="0.35821">
        <ele>716.918006</ele>
        <time>2021-08-14T15:55:01.754Z</time>
      </trkpt>
      <trkpt lat="42.90259" lon="0.35821">
        <ele>716.801587</ele>
        <time>2021-08-14T15:55:02.586Z</time>
      </trkpt>
      <trkpt lat="42.90274" lon="0.35822">
        <ele>716.441447</ele>
        <time>2021-08-14T15:55:05.323Z</time>
      </trkpt>
      <trkpt lat="42.90285" lon="0.35821">
        <ele>716.210883</ele>
        <time>2021-08-14T15:55:07.109Z</time>
      </trkpt>
      <trkpt lat="42.90294" lon="0.35822">
        <ele>715.98487</ele>
        <time>2021-08-14T15:55:08.738Z</time>
      </trkpt>
      <trkpt lat="42.90343" lon="0.35826">
        <ele>714.877129</ele>
        <time>2021-08-14T15:55:16.934Z</time>
      </trkpt>
      <trkpt lat="42.90391" lon="0.35829">
        <ele>713.811006</ele>
        <time>2021-08-14T15:55:25.006Z</time>
      </trkpt>
      <trkpt lat="42.90435" lon="0.3583">
        <ele>712.883863</ele>
        <time>2021-08-14T15:55:32.492Z</time>
      </trkpt>
      <trkpt lat="42.9044" lon="0.35838">
        <ele>712.730177</ele>
        <time>2021-08-14T15:55:33.783Z</time>
      </trkpt>
      <trkpt lat="42.90461" lon="0.35862">
        <ele>712.144468</ele>
        <time>2021-08-14T15:55:38.849Z</time>
      </trkpt>
      <trkpt lat="42.90469" lon="0.35862">
        <ele>711.97459</ele>
        <time>2021-08-14T15:55:40.260Z</time>
      </trkpt>
      <trkpt lat="42.9048" lon="0.3586">
        <ele>711.742586</ele>
        <time>2021-08-14T15:55:42.318Z</time>
      </trkpt>
      <trkpt lat="42.90483" lon="0.35859">
        <ele>711.681037</ele>
        <time>2021-08-14T15:55:42.836Z</time>
      </trkpt>
      <trkpt lat="42.90485" lon="0.35861">
        <ele>711.631643</ele>
        <time>2021-08-14T15:55:43.278Z</time>
      </trkpt>
      <trkpt lat="42.90492" lon="0.3588">
        <ele>711.304764</ele>
        <time>2021-08-14T15:55:46.225Z</time>
      </trkpt>
      <trkpt lat="42.90499" lon="0.35896">
        <ele>711.009182</ele>
        <time>2021-08-14T15:55:48.876Z</time>
      </trkpt>
      <trkpt lat="42.90513" lon="0.35883">
        <ele>710.64971</ele>
        <time>2021-08-14T15:55:52.071Z</time>
      </trkpt>
      <trkpt lat="42.90532" lon="0.35863">
        <ele>710.370181</ele>
        <time>2021-08-14T15:55:56.499Z</time>
      </trkpt>
      <trkpt lat="42.90559" lon="0.35839">
        <ele>710.370181</ele>
        <time>2021-08-14T15:56:02.591Z</time>
      </trkpt>
      <trkpt lat="42.90568" lon="0.35859">
        <ele>710.370181</ele>
        <time>2021-08-14T15:56:14.758Z</time>
      </trkpt>
      <trkpt lat="42.90576" lon="0.35876">
        <ele>710.370181</ele>
        <time>2021-08-14T15:56:25.162Z</time>
      </trkpt>
      <trkpt lat="42.9058" lon="0.3588">
        <ele>710.370181</ele>
        <time>2021-08-14T15:56:28.131Z</time>
      </trkpt>
      <trkpt lat="42.90569" lon="0.35885">
        <ele>710.370181</ele>
        <time>2021-08-14T15:56:35.680Z</time>
      </trkpt>
      <trkpt lat="42.90551" lon="0.35906">
        <ele>710.370181</ele>
        <time>2021-08-14T15:56:52.441Z</time>
      </trkpt>
    </trkseg>
  </trk>
</gpx>